Time,TemperatureF,DewpointF,PressureIn,WindDirection,WindDirectionDegrees,WindSpeedMPH,WindSpeedGustMPH,Humidity,HourlyPrecipIn,Conditions,Clouds,dailyrainin,SoftwareType,DateUTC
2013-06-19 00:00:00,79.0,66.7,30.06,North,0,0.0,0.0,66,0.00,,BKN039,0.02,VWS V14.01,2013-06-19 04:00:00,
2013-06-19 00:01:00,79.0,66.7,30.06,North,0,0.0,0.0,66,0.00,,BKN039,0.02,VWS V14.01,2013-06-19 04:01:00,
2013-06-19 00:02:00,79.0,66.7,30.06,North,0,0.0,0.0,66,0.00,,BKN039,0.00,VWS V14.01,2013-06-19 04:02:00,
2013-06-19 00:03:00,79.0,66.7,30.06,North,0,0.0,0.0,66,0.00,,BKN060,0.00,VWS V14.01,2013-06-19 04:03:00,
2013-06-19 00:05:00,79.0,66.7,30.06,North,0,0.0,0.0,66,0.00,,BKN060,0.00,VWS V14.01,2013-06-19 04:05:00,
2013-06-19 00:06:00,79.0,66.7,30.06,North,0,0.0,0.0,66,0.00,,BKN060,0.00,VWS V14.01,2013-06-19 04:06:00,
2013-06-19 00:08:00,79.0,66.7,30.06,North,0,0.0,0.0,66,0.00,,BKN060,0.00,VWS V14.01,2013-06-19 04:08:00,
2013-06-19 00:09:00,79.0,66.7,30.06,North,0,0.0,0.0,66,0.00,,BKN060,0.00,VWS V14.01,2013-06-19 04:09:00,
2013-06-19 00:11:00,79.0,66.7,30.06,North,0,0.0,0.0,66,0.00,,BKN060,0.00,VWS V14.01,2013-06-19 04:11:00,
2013-06-19 00:13:00,79.0,67.1,30.06,North,0,0.0,0.0,67,0.00,,BKN060,0.00,VWS V14.01,2013-06-19 04:13:00,
2013-06-19 00:15:00,79.0,67.1,30.06,North,0,0.0,0.0,67,0.00,,BKN060,0.00,VWS V14.01,2013-06-19 04:15:00,
2013-06-19 00:16:00,79.0,67.1,30.06,North,0,0.0,0.0,67,0.00,,BKN060,0.00,VWS V14.01,2013-06-19 04:16:00,
2013-06-19 00:17:00,79.0,67.1,30.06,North,0,0.0,0.0,67,0.00,,BKN060,0.00,VWS V14.01,2013-06-19 04:17:00,
2013-06-19 00:18:00,79.0,67.1,30.06,North,0,0.0,0.0,67,0.00,,BKN060,0.00,VWS V14.01,2013-06-19 04:18:00,
2013-06-19 00:20:00,79.0,67.1,30.06,North,0,0.0,0.0,67,0.00,,BKN060,0.00,VWS V14.01,2013-06-19 04:20:00,
2013-06-19 00:22:00,79.0,67.1,30.06,North,0,0.0,0.0,67,0.00,,BKN060,0.00,VWS V14.01,2013-06-19 04:22:00,
2013-06-19 00:23:00,78.8,66.9,30.06,North,0,0.0,0.0,67,0.00,,BKN060,0.00,VWS V14.01,2013-06-19 04:23:00,
2013-06-19 00:25:00,78.8,66.9,30.06,North,0,0.0,0.0,67,0.00,,BKN060,0.00,VWS V14.01,2013-06-19 04:25:00,
2013-06-19 00:27:00,78.8,66.9,30.06,North,0,0.0,0.0,67,0.00,,BKN060,0.00,VWS V14.01,2013-06-19 04:27:00,
2013-06-19 00:29:00,78.8,66.9,30.06,North,0,0.0,0.0,67,0.00,,BKN060,0.00,VWS V14.01,2013-06-19 04:29:00,
2013-06-19 00:32:00,78.6,67.2,30.06,North,0,0.0,0.0,68,0.00,,BKN060,0.00,VWS V14.01,2013-06-19 04:32:00,
2013-06-19 00:34:00,78.6,67.2,30.06,North,0,0.0,0.0,68,0.02,,OVC032,0.02,VWS V14.01,2013-06-19 04:34:00,
2013-06-19 00:35:00,78.6,67.2,30.06,North,0,0.0,0.0,68,0.03,,OVC032,0.03,VWS V14.01,2013-06-19 04:35:00,
2013-06-19 00:36:00,78.6,67.2,30.06,North,0,0.0,0.0,68,0.03,,OVC032,0.03,VWS V14.01,2013-06-19 04:36:00,
2013-06-19 00:38:00,78.4,67.4,30.06,North,0,0.0,0.0,69,0.03,,OVC032,0.03,VWS V14.01,2013-06-19 04:38:00,
2013-06-19 00:40:00,78.4,67.4,30.06,North,0,0.0,0.0,69,0.05,,OVC032,0.05,VWS V14.01,2013-06-19 04:40:00,
2013-06-19 00:43:00,78.4,67.4,30.06,North,0,0.0,0.0,69,0.05,,OVC046,0.05,VWS V14.01,2013-06-19 04:43:00,
2013-06-19 00:44:00,78.4,67.4,30.06,North,0,0.0,0.0,69,0.05,,OVC046,0.05,VWS V14.01,2013-06-19 04:44:00,
2013-06-19 00:46:00,78.4,67.4,30.06,North,0,0.0,0.0,69,0.05,,OVC046,0.05,VWS V14.01,2013-06-19 04:46:00,
2013-06-19 00:47:00,78.4,67.4,30.06,North,0,0.0,0.0,69,0.05,,OVC046,0.05,VWS V14.01,2013-06-19 04:47:00,
2013-06-19 00:48:00,78.4,67.4,30.06,North,0,0.0,0.0,69,0.05,,OVC046,0.05,VWS V14.01,2013-06-19 04:48:00,
2013-06-19 00:49:00,78.4,67.4,30.06,North,0,0.0,0.0,69,0.05,,OVC046,0.05,VWS V14.01,2013-06-19 04:49:00,
2013-06-19 00:54:00,78.4,67.4,30.06,North,0,0.0,0.0,69,0.05,,OVC046,0.05,VWS V14.01,2013-06-19 04:54:00,
2013-06-19 00:55:00,78.4,67.4,30.06,North,0,0.0,0.0,69,0.06,,OVC046,0.06,VWS V14.01,2013-06-19 04:55:00,
2013-06-19 00:59:00,77.2,68.3,30.06,North,0,0.0,0.0,74,0.06,,OVC046,0.06,VWS V14.01,2013-06-19 04:59:00,
2013-06-19 01:01:00,77.2,68.3,30.06,North,0,0.0,0.0,74,0.06,,OVC046,0.06,VWS V14.01,2013-06-19 05:01:00,
2013-06-19 01:02:00,77.2,68.3,30.06,North,0,0.0,0.0,74,0.06,,OVC046,0.06,VWS V14.01,2013-06-19 05:02:00,
2013-06-19 01:03:00,77.2,68.3,30.06,North,0,0.0,0.0,74,0.06,,,0.06,VWS V14.01,2013-06-19 05:03:00,
2013-06-19 01:06:00,77.2,68.3,30.06,North,0,0.0,0.0,74,0.06,,,0.06,VWS V14.01,2013-06-19 05:06:00,
2013-06-19 01:07:00,77.2,68.3,30.06,North,0,0.0,0.0,74,0.06,,,0.06,VWS V14.01,2013-06-19 05:07:00,
2013-06-19 01:08:00,77.2,68.3,30.06,North,0,0.0,0.0,74,0.06,,,0.06,VWS V14.01,2013-06-19 05:08:00,
2013-06-19 01:12:00,77.2,68.3,30.06,North,0,0.0,0.0,74,0.06,,,0.06,VWS V14.01,2013-06-19 05:12:00,
2013-06-19 01:13:00,77.2,68.3,30.06,North,0,0.0,0.0,74,0.06,,,0.06,VWS V14.01,2013-06-19 05:13:00,
2013-06-19 01:15:00,77.2,68.3,30.03,North,0,0.0,0.0,74,0.06,,,0.06,VWS V14.01,2013-06-19 05:15:00,
2013-06-19 01:18:00,77.2,68.3,30.03,North,0,0.0,0.0,74,0.06,,,0.06,VWS V14.01,2013-06-19 05:18:00,
2013-06-19 01:19:00,77.2,68.3,30.03,North,0,0.0,0.0,74,0.06,,,0.06,VWS V14.01,2013-06-19 05:19:00,
2013-06-19 01:20:00,77.2,68.3,30.03,North,0,0.0,0.0,74,0.06,,,0.06,VWS V14.01,2013-06-19 05:20:00,
2013-06-19 01:23:00,77.2,68.3,30.03,North,0,0.0,0.0,74,0.06,,-RA,0.06,VWS V14.01,2013-06-19 05:23:00,
2013-06-19 01:25:00,77.2,68.3,30.03,North,0,0.0,0.0,74,0.06,,-RA,0.06,VWS V14.01,2013-06-19 05:25:00,
2013-06-19 01:26:00,77.2,68.3,30.03,North,0,0.0,0.0,74,0.06,,-RA,0.06,VWS V14.01,2013-06-19 05:26:00,
2013-06-19 01:28:00,77.2,68.3,30.03,North,0,0.0,0.0,74,0.06,,-RA,0.06,VWS V14.01,2013-06-19 05:28:00,
2013-06-19 01:29:00,77.2,68.3,30.06,North,0,0.0,0.0,74,0.06,,-RA,0.06,VWS V14.01,2013-06-19 05:29:00,
2013-06-19 01:30:00,77.2,68.3,30.06,North,0,0.0,0.0,74,0.06,,-RA,0.06,VWS V14.01,2013-06-19 05:30:00,
2013-06-19 01:32:00,77.2,68.3,30.06,North,0,0.0,0.0,74,0.06,,-RA,0.06,VWS V14.01,2013-06-19 05:32:00,
2013-06-19 01:33:00,77.2,68.3,30.06,North,0,0.0,0.0,74,0.06,,BKN100,0.06,VWS V14.01,2013-06-19 05:33:00,
2013-06-19 01:37:00,76.5,69.8,30.06,North,0,0.0,0.0,80,0.02,,BKN100,0.06,VWS V14.01,2013-06-19 05:37:00,
2013-06-19 01:38:00,76.5,69.8,30.06,North,0,0.0,0.0,80,0.02,,BKN100,0.06,VWS V14.01,2013-06-19 05:38:00,
2013-06-19 01:39:00,76.5,69.8,30.06,North,0,0.0,0.0,80,0.02,,BKN100,0.06,VWS V14.01,2013-06-19 05:39:00,
2013-06-19 01:41:00,76.5,69.8,30.06,North,0,0.0,0.0,80,0.01,,BKN100,0.06,VWS V14.01,2013-06-19 05:41:00,
2013-06-19 01:42:00,76.5,69.8,30.06,North,0,0.0,0.0,80,0.01,,BKN100,0.06,VWS V14.01,2013-06-19 05:42:00,
2013-06-19 01:44:00,76.5,70.2,30.06,North,0,0.0,0.0,81,0.01,,BKN100,0.06,VWS V14.01,2013-06-19 05:44:00,
2013-06-19 01:45:00,76.5,70.2,30.06,North,0,0.0,0.0,81,0.01,,BKN100,0.06,VWS V14.01,2013-06-19 05:45:00,
2013-06-19 01:46:00,76.5,70.2,30.06,North,0,0.0,0.0,81,0.01,,BKN100,0.06,VWS V14.01,2013-06-19 05:46:00,
2013-06-19 01:47:00,76.5,70.2,30.06,North,0,0.0,0.0,81,0.01,,BKN100,0.06,VWS V14.01,2013-06-19 05:47:00,
2013-06-19 01:49:00,76.5,70.2,30.06,North,0,0.0,0.0,81,0.01,,BKN100,0.06,VWS V14.01,2013-06-19 05:49:00,
2013-06-19 01:51:00,76.5,70.2,30.06,North,0,0.0,0.0,81,0.01,,BKN100,0.06,VWS V14.01,2013-06-19 05:51:00,
2013-06-19 01:55:00,76.5,70.2,30.06,North,0,0.0,0.0,81,0.01,,BKN100,0.06,VWS V14.01,2013-06-19 05:55:00,
2013-06-19 01:56:00,76.5,70.2,30.06,North,0,0.0,0.0,81,0.00,,BKN100,0.06,VWS V14.01,2013-06-19 05:56:00,
2013-06-19 01:57:00,76.5,70.2,30.06,North,0,0.0,0.0,81,0.00,,BKN100,0.06,VWS V14.01,2013-06-19 05:57:00,
2013-06-19 02:01:00,76.5,70.2,30.06,North,0,0.0,0.0,81,0.00,,BKN100,0.06,VWS V14.01,2013-06-19 06:01:00,
2013-06-19 02:02:00,76.5,70.2,30.06,North,0,0.0,0.0,81,0.00,,BKN100,0.06,VWS V14.01,2013-06-19 06:02:00,
2013-06-19 02:03:00,76.5,70.2,30.06,North,0,0.0,0.0,81,0.00,,-RA,0.06,VWS V14.01,2013-06-19 06:03:00,
2013-06-19 02:04:00,76.5,70.2,30.06,North,0,0.0,0.0,81,0.00,,-RA,0.06,VWS V14.01,2013-06-19 06:04:00,
2013-06-19 02:07:00,76.5,70.2,30.06,North,0,0.0,0.0,81,0.00,,-RA,0.06,VWS V14.01,2013-06-19 06:07:00,
2013-06-19 02:08:00,76.5,70.2,30.06,North,0,0.0,0.0,81,0.00,,-RA,0.06,VWS V14.01,2013-06-19 06:08:00,
2013-06-19 02:09:00,76.5,70.2,30.06,North,0,0.0,0.0,81,0.00,,-RA,0.06,VWS V14.01,2013-06-19 06:09:00,
2013-06-19 02:11:00,76.5,70.2,30.06,North,0,0.0,0.0,81,0.00,,-RA,0.06,VWS V14.01,2013-06-19 06:11:00,
2013-06-19 02:14:00,76.5,70.2,30.03,North,0,0.0,0.0,81,0.00,,-RA,0.06,VWS V14.01,2013-06-19 06:14:00,
2013-06-19 02:15:00,76.5,71.3,30.03,North,0,0.0,0.0,84,0.00,,-RA,0.06,VWS V14.01,2013-06-19 06:15:00,
2013-06-19 02:16:00,76.5,71.3,30.03,North,0,0.0,0.0,84,0.00,,-RA,0.06,VWS V14.01,2013-06-19 06:16:00,
2013-06-19 02:17:00,76.5,71.3,30.03,North,0,0.0,0.0,84,0.00,,-RA,0.06,VWS V14.01,2013-06-19 06:17:00,
2013-06-19 02:19:00,76.5,71.3,30.03,North,0,0.0,0.0,84,0.00,,-RA,0.06,VWS V14.01,2013-06-19 06:19:00,
2013-06-19 02:21:00,76.5,71.3,30.03,North,0,0.0,0.0,84,0.00,,-RA,0.06,VWS V14.01,2013-06-19 06:21:00,
2013-06-19 02:22:00,76.5,71.3,30.03,North,0,0.0,0.0,84,0.00,,-RA,0.06,VWS V14.01,2013-06-19 06:22:00,
2013-06-19 02:23:00,76.5,71.3,30.03,North,0,0.0,0.0,84,0.00,,-RA,0.06,VWS V14.01,2013-06-19 06:23:00,
2013-06-19 02:24:00,76.5,71.3,30.03,North,0,0.0,0.0,84,0.00,,-RA,0.06,VWS V14.01,2013-06-19 06:24:00,
2013-06-19 02:27:00,76.5,71.3,30.03,North,0,0.0,0.0,84,0.00,,-RA,0.06,VWS V14.01,2013-06-19 06:27:00,
2013-06-19 02:28:00,76.5,71.3,30.03,North,0,0.0,0.0,84,0.00,,-RA,0.06,VWS V14.01,2013-06-19 06:28:00,
2013-06-19 02:29:00,76.5,71.3,30.06,North,0,0.0,0.0,84,0.00,,-RA,0.06,VWS V14.01,2013-06-19 06:29:00,
2013-06-19 02:30:00,76.5,71.3,30.06,North,0,0.0,0.0,84,0.00,,-RA,0.06,VWS V14.01,2013-06-19 06:30:00,
2013-06-19 02:33:00,76.5,71.3,30.06,North,0,0.0,0.0,84,0.00,,BKN085,0.06,VWS V14.01,2013-06-19 06:33:00,
2013-06-19 02:36:00,76.5,71.3,30.06,North,0,0.0,0.0,84,0.00,,BKN085,0.06,VWS V14.01,2013-06-19 06:36:00,
2013-06-19 02:37:00,76.5,71.3,30.06,North,0,0.0,0.0,84,0.00,,BKN085,0.06,VWS V14.01,2013-06-19 06:37:00,
2013-06-19 02:38:00,76.5,71.3,30.06,North,0,0.0,0.0,84,0.00,,BKN085,0.06,VWS V14.01,2013-06-19 06:38:00,
2013-06-19 02:39:00,76.5,71.3,30.06,North,0,0.0,0.0,84,0.00,,BKN085,0.06,VWS V14.01,2013-06-19 06:39:00,
2013-06-19 02:40:00,76.5,71.3,30.06,North,0,0.0,0.0,84,0.00,,BKN085,0.06,VWS V14.01,2013-06-19 06:40:00,
2013-06-19 02:42:00,76.5,71.3,30.06,North,0,0.0,0.0,84,0.00,,BKN085,0.06,VWS V14.01,2013-06-19 06:42:00,
2013-06-19 02:43:00,76.5,71.3,30.06,North,0,0.0,0.0,84,0.00,,BKN085,0.06,VWS V14.01,2013-06-19 06:43:00,
2013-06-19 02:46:00,76.5,71.3,30.06,North,0,0.0,0.0,84,0.00,,BKN085,0.06,VWS V14.01,2013-06-19 06:46:00,
2013-06-19 02:48:00,76.5,71.3,30.06,North,0,0.0,0.0,84,0.00,,BKN085,0.06,VWS V14.01,2013-06-19 06:48:00,
2013-06-19 02:50:00,76.6,71.4,30.06,North,0,0.0,0.0,84,0.00,,BKN085,0.06,VWS V14.01,2013-06-19 06:50:00,
2013-06-19 02:51:00,76.6,71.4,30.06,North,0,0.0,0.0,84,0.00,,BKN085,0.06,VWS V14.01,2013-06-19 06:51:00,
2013-06-19 02:52:00,76.6,71.4,30.06,North,0,0.0,0.0,84,0.00,,BKN085,0.06,VWS V14.01,2013-06-19 06:52:00,
2013-06-19 02:53:00,76.6,71.4,30.06,North,0,0.0,0.0,84,0.00,,BKN085,0.06,VWS V14.01,2013-06-19 06:53:00,
2013-06-19 02:56:00,76.6,71.4,30.06,North,0,0.0,0.0,84,0.00,,BKN085,0.06,VWS V14.01,2013-06-19 06:56:00,
2013-06-19 02:57:00,76.6,71.4,30.06,North,0,0.0,0.0,84,0.00,,BKN085,0.06,VWS V14.01,2013-06-19 06:57:00,
2013-06-19 03:00:00,76.6,71.4,30.06,North,0,0.0,0.0,84,0.00,,BKN085,0.06,VWS V14.01,2013-06-19 07:00:00,
2013-06-19 03:01:00,76.6,71.4,30.06,North,0,0.0,0.0,84,0.00,,BKN085,0.06,VWS V14.01,2013-06-19 07:01:00,
2013-06-19 03:02:00,76.6,71.4,30.06,North,0,0.0,0.0,84,0.00,,BKN085,0.06,VWS V14.01,2013-06-19 07:02:00,
2013-06-19 03:05:00,76.6,71.4,30.06,North,0,0.0,0.0,84,0.00,,BKN075,0.06,VWS V14.01,2013-06-19 07:05:00,
2013-06-19 03:09:00,76.6,71.4,30.06,North,0,0.0,0.0,84,0.00,,BKN075,0.06,VWS V14.01,2013-06-19 07:09:00,
2013-06-19 03:10:00,76.6,71.4,30.06,North,0,0.0,0.0,84,0.00,,BKN075,0.06,VWS V14.01,2013-06-19 07:10:00,
2013-06-19 03:11:00,76.6,71.4,30.06,North,0,0.0,0.0,84,0.00,,BKN075,0.06,VWS V14.01,2013-06-19 07:11:00,
2013-06-19 03:16:00,76.6,71.4,30.06,North,0,0.0,0.0,84,0.00,,BKN075,0.06,VWS V14.01,2013-06-19 07:16:00,
2013-06-19 03:17:00,76.6,71.4,30.06,North,0,0.0,0.0,84,0.00,,BKN075,0.06,VWS V14.01,2013-06-19 07:17:00,
2013-06-19 03:18:00,76.6,71.4,30.06,North,0,0.0,0.0,84,0.00,,BKN075,0.06,VWS V14.01,2013-06-19 07:18:00,
2013-06-19 03:19:00,76.6,71.4,30.06,North,0,0.0,0.0,84,0.00,,BKN075,0.06,VWS V14.01,2013-06-19 07:19:00,
2013-06-19 03:21:00,76.6,71.4,30.06,North,0,0.0,0.0,84,0.00,,BKN075,0.06,VWS V14.01,2013-06-19 07:21:00,
2013-06-19 03:24:00,76.6,71.4,30.06,North,0,0.0,0.0,84,0.00,,CLR,0.06,VWS V14.01,2013-06-19 07:24:00,
2013-06-19 03:25:00,76.6,71.4,30.06,North,0,0.0,0.0,84,0.00,,CLR,0.06,VWS V14.01,2013-06-19 07:25:00,
2013-06-19 03:26:00,76.6,71.4,30.06,North,0,0.0,0.0,84,0.00,,CLR,0.06,VWS V14.01,2013-06-19 07:26:00,
2013-06-19 03:29:00,76.6,71.4,30.06,North,0,0.0,0.0,84,0.00,,CLR,0.06,VWS V14.01,2013-06-19 07:29:00,
2013-06-19 03:31:00,76.6,71.4,30.06,North,0,0.0,0.0,84,0.00,,CLR,0.06,VWS V14.01,2013-06-19 07:31:00,
2013-06-19 03:32:00,76.6,71.4,30.06,North,0,0.0,0.0,84,0.00,,CLR,0.06,VWS V14.01,2013-06-19 07:32:00,
2013-06-19 03:34:00,76.6,71.4,30.06,North,0,0.0,0.0,84,0.00,,CLR,0.06,VWS V14.01,2013-06-19 07:34:00,
2013-06-19 03:35:00,76.6,71.4,30.06,North,0,0.0,0.0,84,0.00,,CLR,0.06,VWS V14.01,2013-06-19 07:35:00,
2013-06-19 03:37:00,76.6,71.4,30.06,North,0,0.0,0.0,84,0.00,,CLR,0.06,VWS V14.01,2013-06-19 07:37:00,
2013-06-19 03:39:00,76.6,71.8,30.06,North,0,0.0,0.0,85,0.00,,CLR,0.06,VWS V14.01,2013-06-19 07:39:00,
2013-06-19 03:40:00,76.6,71.8,30.06,North,0,0.0,0.0,85,0.00,,CLR,0.06,VWS V14.01,2013-06-19 07:40:00,
2013-06-19 03:41:00,76.6,71.8,30.06,North,0,0.0,0.0,85,0.00,,CLR,0.06,VWS V14.01,2013-06-19 07:41:00,
2013-06-19 03:44:00,76.6,71.8,30.06,North,0,0.0,0.0,85,0.00,,CLR,0.06,VWS V14.01,2013-06-19 07:44:00,
2013-06-19 03:45:00,76.6,71.8,30.06,North,0,0.0,0.0,85,0.00,,CLR,0.06,VWS V14.01,2013-06-19 07:45:00,
2013-06-19 03:46:00,76.6,71.8,30.06,North,0,0.0,0.0,85,0.00,,CLR,0.06,VWS V14.01,2013-06-19 07:46:00,
2013-06-19 03:48:00,76.6,71.8,30.06,North,0,0.0,0.0,85,0.00,,CLR,0.06,VWS V14.01,2013-06-19 07:48:00,
2013-06-19 03:49:00,76.6,71.8,30.06,North,0,0.0,0.0,85,0.00,,CLR,0.06,VWS V14.01,2013-06-19 07:49:00,
2013-06-19 03:50:00,76.6,71.8,30.06,North,0,0.0,0.0,85,0.00,,CLR,0.06,VWS V14.01,2013-06-19 07:50:00,
2013-06-19 03:54:00,76.6,71.8,30.06,North,0,0.0,0.0,85,0.00,,CLR,0.06,VWS V14.01,2013-06-19 07:54:00,
2013-06-19 03:55:00,76.6,71.8,30.06,North,0,0.0,0.0,85,0.00,,CLR,0.06,VWS V14.01,2013-06-19 07:55:00,
2013-06-19 03:56:00,76.6,71.8,30.06,North,0,0.0,0.0,85,0.00,,CLR,0.06,VWS V14.01,2013-06-19 07:56:00,
2013-06-19 03:58:00,76.6,71.8,30.06,North,0,0.0,0.0,85,0.00,,CLR,0.06,VWS V14.01,2013-06-19 07:58:00,
2013-06-19 03:59:00,76.6,71.8,30.03,North,0,0.0,0.0,85,0.00,,CLR,0.06,VWS V14.01,2013-06-19 07:59:00,
2013-06-19 04:01:00,76.6,71.8,30.03,North,0,0.0,0.0,85,0.00,,CLR,0.06,VWS V14.01,2013-06-19 08:01:00,
2013-06-19 04:02:00,76.6,71.8,30.03,North,0,0.0,0.0,85,0.00,,CLR,0.06,VWS V14.01,2013-06-19 08:02:00,
2013-06-19 04:03:00,76.6,71.8,30.03,North,0,0.0,0.0,85,0.00,,CLR,0.06,VWS V14.01,2013-06-19 08:03:00,
2013-06-19 04:06:00,76.5,71.6,30.03,North,0,0.0,0.0,85,0.00,,CLR,0.06,VWS V14.01,2013-06-19 08:06:00,
2013-06-19 04:09:00,76.5,71.6,30.03,North,0,0.0,0.0,85,0.00,,CLR,0.06,VWS V14.01,2013-06-19 08:09:00,
2013-06-19 04:10:00,76.5,71.6,30.03,North,0,0.0,0.0,85,0.00,,CLR,0.06,VWS V14.01,2013-06-19 08:10:00,
2013-06-19 04:11:00,76.5,71.6,30.03,North,0,0.0,0.0,85,0.00,,CLR,0.06,VWS V14.01,2013-06-19 08:11:00,
2013-06-19 04:16:00,76.5,71.6,30.03,North,0,0.0,0.0,85,0.00,,CLR,0.06,VWS V14.01,2013-06-19 08:16:00,
2013-06-19 04:18:00,76.5,71.6,30.03,North,0,0.0,0.0,85,0.00,,CLR,0.06,VWS V14.01,2013-06-19 08:18:00,
2013-06-19 04:20:00,76.5,71.6,30.03,North,0,0.0,0.0,85,0.00,,CLR,0.06,VWS V14.01,2013-06-19 08:20:00,
2013-06-19 04:21:00,76.5,71.6,30.03,North,0,0.0,0.0,85,0.00,,CLR,0.06,VWS V14.01,2013-06-19 08:21:00,
2013-06-19 04:22:00,76.5,71.6,30.03,North,0,0.0,0.0,85,0.00,,CLR,0.06,VWS V14.01,2013-06-19 08:22:00,
2013-06-19 04:23:00,76.5,71.6,30.03,North,0,0.0,0.0,85,0.00,,CLR,0.06,VWS V14.01,2013-06-19 08:23:00,
2013-06-19 04:24:00,76.5,71.6,30.03,North,0,0.0,0.0,85,0.00,,CLR,0.06,VWS V14.01,2013-06-19 08:24:00,
2013-06-19 04:27:00,76.5,71.6,30.03,North,0,0.0,0.0,85,0.00,,CLR,0.06,VWS V14.01,2013-06-19 08:27:00,
2013-06-19 04:28:00,76.5,71.6,30.03,North,0,0.0,0.0,85,0.00,,CLR,0.06,VWS V14.01,2013-06-19 08:28:00,
2013-06-19 04:33:00,76.5,71.6,30.03,North,0,0.0,0.0,85,0.00,,CLR,0.06,VWS V14.01,2013-06-19 08:33:00,
2013-06-19 04:34:00,76.5,71.6,30.03,North,0,0.0,0.0,85,0.00,,CLR,0.06,VWS V14.01,2013-06-19 08:34:00,
2013-06-19 04:35:00,76.5,71.6,30.03,North,0,0.0,0.0,85,0.00,,CLR,0.06,VWS V14.01,2013-06-19 08:35:00,
2013-06-19 04:38:00,76.5,71.6,30.03,North,0,0.0,0.0,85,0.00,,CLR,0.06,VWS V14.01,2013-06-19 08:38:00,
2013-06-19 04:40:00,76.5,71.6,30.03,North,0,0.0,0.0,85,0.00,,CLR,0.06,VWS V14.01,2013-06-19 08:40:00,
2013-06-19 04:41:00,76.5,71.6,30.03,North,0,0.0,0.0,85,0.00,,CLR,0.06,VWS V14.01,2013-06-19 08:41:00,
2013-06-19 04:43:00,76.5,71.6,30.03,North,0,0.0,0.0,85,0.00,,CLR,0.06,VWS V14.01,2013-06-19 08:43:00,
2013-06-19 04:45:00,76.3,71.4,30.03,North,0,0.0,0.0,85,0.00,,CLR,0.06,VWS V14.01,2013-06-19 08:45:00,
2013-06-19 04:46:00,76.3,71.4,30.03,North,0,0.0,0.0,85,0.00,,CLR,0.06,VWS V14.01,2013-06-19 08:46:00,
2013-06-19 04:50:00,76.3,71.1,30.03,North,0,0.0,0.0,84,0.00,,CLR,0.06,VWS V14.01,2013-06-19 08:50:00,
2013-06-19 04:52:00,76.3,71.1,30.03,North,0,0.0,0.0,84,0.00,,CLR,0.06,VWS V14.01,2013-06-19 08:52:00,
2013-06-19 04:53:00,76.3,71.1,30.03,North,0,0.0,0.0,84,0.00,,CLR,0.06,VWS V14.01,2013-06-19 08:53:00,
2013-06-19 04:55:00,76.3,71.1,30.03,North,0,0.0,0.0,84,0.00,,CLR,0.06,VWS V14.01,2013-06-19 08:55:00,
2013-06-19 04:56:00,76.3,71.1,30.03,North,0,0.0,0.0,84,0.00,,CLR,0.06,VWS V14.01,2013-06-19 08:56:00,
2013-06-19 04:58:00,76.1,70.9,30.03,North,0,0.0,0.0,84,0.00,,CLR,0.06,VWS V14.01,2013-06-19 08:58:00,
2013-06-19 04:59:00,76.1,70.9,30.03,North,0,0.0,0.0,84,0.00,,CLR,0.06,VWS V14.01,2013-06-19 08:59:00,
2013-06-19 05:01:00,76.1,70.9,30.03,North,0,0.0,0.0,84,0.00,,CLR,0.06,VWS V14.01,2013-06-19 09:01:00,
2013-06-19 05:03:00,76.1,70.9,30.03,North,0,0.0,0.0,84,0.00,,CLR,0.06,VWS V14.01,2013-06-19 09:03:00,
2013-06-19 05:04:00,76.1,70.9,30.03,North,0,0.0,0.0,84,0.00,,CLR,0.06,VWS V14.01,2013-06-19 09:04:00,
2013-06-19 05:05:00,76.1,70.9,30.03,North,0,0.0,0.0,84,0.00,,CLR,0.06,VWS V14.01,2013-06-19 09:05:00,
2013-06-19 05:06:00,76.1,70.9,30.03,North,0,0.0,0.0,84,0.00,,CLR,0.06,VWS V14.01,2013-06-19 09:06:00,
2013-06-19 05:10:00,76.1,70.9,30.03,North,0,0.0,0.0,84,0.00,,CLR,0.06,VWS V14.01,2013-06-19 09:10:00,
2013-06-19 05:11:00,76.1,70.9,30.03,North,0,0.0,0.0,84,0.00,,CLR,0.06,VWS V14.01,2013-06-19 09:11:00,
2013-06-19 05:15:00,75.9,70.7,30.03,North,0,0.0,0.0,84,0.00,,CLR,0.06,VWS V14.01,2013-06-19 09:15:00,
2013-06-19 05:16:00,75.9,70.7,30.03,North,0,0.0,0.0,84,0.00,,CLR,0.06,VWS V14.01,2013-06-19 09:16:00,
2013-06-19 05:19:00,75.9,70.7,30.03,North,0,0.0,0.0,84,0.00,,CLR,0.06,VWS V14.01,2013-06-19 09:19:00,
2013-06-19 05:21:00,75.9,70.7,30.03,North,0,0.0,0.0,84,0.00,,CLR,0.06,VWS V14.01,2013-06-19 09:21:00,
2013-06-19 05:22:00,75.9,70.7,30.03,North,0,0.0,0.0,84,0.00,,CLR,0.06,VWS V14.01,2013-06-19 09:22:00,
2013-06-19 05:25:00,75.9,70.7,30.03,North,0,0.0,0.0,84,0.00,,CLR,0.06,VWS V14.01,2013-06-19 09:25:00,
2013-06-19 05:26:00,75.9,70.7,30.03,North,0,0.0,0.0,84,0.00,,CLR,0.06,VWS V14.01,2013-06-19 09:26:00,
2013-06-19 05:28:00,75.9,70.7,30.03,North,0,0.0,0.0,84,0.00,,CLR,0.06,VWS V14.01,2013-06-19 09:28:00,
2013-06-19 05:31:00,75.9,70.4,30.03,North,0,0.0,0.0,83,0.00,,CLR,0.06,VWS V14.01,2013-06-19 09:31:00,
2013-06-19 05:32:00,75.9,70.4,30.03,North,0,0.0,0.0,83,0.00,,CLR,0.06,VWS V14.01,2013-06-19 09:32:00,
2013-06-19 05:33:00,75.9,70.4,30.03,North,0,0.0,0.0,83,0.00,,CLR,0.06,VWS V14.01,2013-06-19 09:33:00,
2013-06-19 05:35:00,75.9,70.4,30.03,North,0,0.0,0.0,83,0.00,,CLR,0.06,VWS V14.01,2013-06-19 09:35:00,
2013-06-19 05:36:00,75.9,70.4,30.03,North,0,0.0,0.0,83,0.00,,CLR,0.06,VWS V14.01,2013-06-19 09:36:00,
2013-06-19 05:37:00,75.9,70.4,30.03,North,0,0.0,0.0,83,0.00,,CLR,0.06,VWS V14.01,2013-06-19 09:37:00,
2013-06-19 05:39:00,75.9,70.4,30.03,North,0,0.0,0.0,83,0.00,,CLR,0.06,VWS V14.01,2013-06-19 09:39:00,
2013-06-19 05:40:00,75.9,70.4,30.03,North,0,0.0,0.0,83,0.00,,CLR,0.06,VWS V14.01,2013-06-19 09:40:00,
2013-06-19 05:43:00,75.7,70.2,30.03,North,0,0.0,0.0,83,0.00,,CLR,0.06,VWS V14.01,2013-06-19 09:43:00,
2013-06-19 05:44:00,75.7,70.2,30.00,North,0,0.0,0.0,83,0.00,,CLR,0.06,VWS V14.01,2013-06-19 09:44:00,
2013-06-19 05:46:00,75.7,70.6,30.00,North,0,0.0,0.0,84,0.00,,CLR,0.06,VWS V14.01,2013-06-19 09:46:00,
2013-06-19 05:47:00,75.7,70.6,30.00,North,0,0.0,0.0,84,0.00,,CLR,0.06,VWS V14.01,2013-06-19 09:47:00,
2013-06-19 05:49:00,75.7,70.6,30.00,North,0,0.0,0.0,84,0.00,,CLR,0.06,VWS V14.01,2013-06-19 09:49:00,
2013-06-19 05:51:00,75.7,70.6,30.00,North,0,0.0,0.0,84,0.00,,CLR,0.06,VWS V14.01,2013-06-19 09:51:00,
2013-06-19 05:53:00,75.7,70.6,30.00,North,0,0.0,0.0,84,0.00,,CLR,0.06,VWS V14.01,2013-06-19 09:53:00,
2013-06-19 05:54:00,75.7,70.6,30.00,North,0,0.0,0.0,84,0.00,,CLR,0.06,VWS V14.01,2013-06-19 09:54:00,
2013-06-19 05:58:00,75.7,70.6,30.00,North,0,0.0,0.0,84,0.00,,CLR,0.06,VWS V14.01,2013-06-19 09:58:00,
2013-06-19 05:59:00,75.7,70.6,30.00,North,0,0.0,0.0,84,0.00,,CLR,0.06,VWS V14.01,2013-06-19 09:59:00,
2013-06-19 06:00:00,75.7,70.6,30.00,North,0,0.0,0.0,84,0.00,,CLR,0.06,VWS V14.01,2013-06-19 10:00:00,
2013-06-19 06:01:00,75.7,70.6,30.00,North,0,0.0,0.0,84,0.00,,CLR,0.06,VWS V14.01,2013-06-19 10:01:00,
2013-06-19 06:06:00,75.7,70.6,30.00,North,0,0.0,0.0,84,0.00,,CLR,0.06,VWS V14.01,2013-06-19 10:06:00,
2013-06-19 06:07:00,75.7,70.6,30.00,North,0,0.0,0.0,84,0.00,,CLR,0.06,VWS V14.01,2013-06-19 10:07:00,
2013-06-19 06:08:00,75.7,70.6,30.00,North,0,0.0,0.0,84,0.00,,CLR,0.06,VWS V14.01,2013-06-19 10:08:00,
2013-06-19 06:11:00,75.7,70.6,30.00,North,0,0.0,0.0,84,0.00,,CLR,0.06,VWS V14.01,2013-06-19 10:11:00,
2013-06-19 06:12:00,75.7,70.6,30.00,North,0,0.0,0.0,84,0.00,,CLR,0.06,VWS V14.01,2013-06-19 10:12:00,
2013-06-19 06:13:00,75.7,70.6,30.00,North,0,0.0,0.0,84,0.00,,CLR,0.06,VWS V14.01,2013-06-19 10:13:00,
2013-06-19 06:14:00,75.6,70.4,30.03,North,0,0.0,0.0,84,0.00,,CLR,0.06,VWS V14.01,2013-06-19 10:14:00,
2013-06-19 06:18:00,75.6,70.4,30.03,North,0,0.0,0.0,84,0.00,,CLR,0.06,VWS V14.01,2013-06-19 10:18:00,
2013-06-19 06:19:00,75.6,70.4,30.03,North,0,0.0,0.0,84,0.00,,CLR,0.06,VWS V14.01,2013-06-19 10:19:00,
2013-06-19 06:22:00,75.6,70.4,30.03,North,0,0.0,0.0,84,0.00,,CLR,0.06,VWS V14.01,2013-06-19 10:22:00,
2013-06-19 06:23:00,75.6,70.4,30.03,North,0,0.0,0.0,84,0.00,,CLR,0.06,VWS V14.01,2013-06-19 10:23:00,
2013-06-19 06:24:00,75.6,70.4,30.03,North,0,0.0,0.0,84,0.00,,CLR,0.06,VWS V14.01,2013-06-19 10:24:00,
2013-06-19 06:25:00,75.6,70.4,30.03,North,0,0.0,0.0,84,0.00,,CLR,0.06,VWS V14.01,2013-06-19 10:25:00,
2013-06-19 06:27:00,75.6,70.4,30.03,North,0,0.0,0.0,84,0.00,,CLR,0.06,VWS V14.01,2013-06-19 10:27:00,
2013-06-19 06:30:00,75.6,70.4,30.03,North,0,0.0,0.0,84,0.00,,CLR,0.06,VWS V14.01,2013-06-19 10:30:00,
2013-06-19 06:32:00,75.6,70.4,30.03,North,0,0.0,0.0,84,0.00,,CLR,0.06,VWS V14.01,2013-06-19 10:32:00,
2013-06-19 06:33:00,75.6,70.4,30.03,North,0,0.0,0.0,84,0.00,,CLR,0.06,VWS V14.01,2013-06-19 10:33:00,
2013-06-19 06:34:00,75.6,70.4,30.03,North,0,0.0,0.0,84,0.00,,CLR,0.06,VWS V14.01,2013-06-19 10:34:00,
2013-06-19 06:37:00,75.6,70.4,30.03,North,0,0.0,0.0,84,0.00,,CLR,0.06,VWS V14.01,2013-06-19 10:37:00,
2013-06-19 06:39:00,75.6,70.4,30.03,North,0,0.0,0.0,84,0.00,,CLR,0.06,VWS V14.01,2013-06-19 10:39:00,
2013-06-19 06:42:00,75.6,70.4,30.03,North,0,0.0,0.0,84,0.00,,CLR,0.06,VWS V14.01,2013-06-19 10:42:00,
2013-06-19 06:45:00,75.6,70.7,30.03,North,0,0.0,0.0,85,0.00,,CLR,0.06,VWS V14.01,2013-06-19 10:45:00,
2013-06-19 06:46:00,75.6,70.7,30.03,North,0,0.0,0.0,85,0.00,,CLR,0.06,VWS V14.01,2013-06-19 10:46:00,
2013-06-19 06:47:00,75.6,70.7,30.03,North,0,0.0,0.0,85,0.00,,CLR,0.06,VWS V14.01,2013-06-19 10:47:00,
2013-06-19 06:48:00,75.6,70.7,30.03,North,0,0.0,0.0,85,0.00,,CLR,0.06,VWS V14.01,2013-06-19 10:48:00,
2013-06-19 06:50:00,75.6,70.7,30.03,North,0,0.0,0.0,85,0.00,,CLR,0.06,VWS V14.01,2013-06-19 10:50:00,
2013-06-19 06:51:00,75.6,70.7,30.03,North,0,0.0,0.0,85,0.00,,CLR,0.06,VWS V14.01,2013-06-19 10:51:00,
2013-06-19 06:52:00,75.6,70.7,30.03,North,0,0.0,0.0,85,0.00,,CLR,0.06,VWS V14.01,2013-06-19 10:52:00,
2013-06-19 06:53:00,75.6,70.7,30.03,North,0,0.0,0.0,85,0.00,,CLR,0.06,VWS V14.01,2013-06-19 10:53:00,
2013-06-19 06:55:00,75.6,70.7,30.03,North,0,0.0,0.0,85,0.00,,CLR,0.06,VWS V14.01,2013-06-19 10:55:00,
2013-06-19 06:56:00,75.6,70.7,30.03,North,0,0.0,0.0,85,0.00,,CLR,0.06,VWS V14.01,2013-06-19 10:56:00,
2013-06-19 07:01:00,75.6,70.7,30.03,North,0,0.0,0.0,85,0.00,,CLR,0.06,VWS V14.01,2013-06-19 11:01:00,
2013-06-19 07:03:00,75.6,70.7,30.03,North,0,0.0,0.0,85,0.00,,CLR,0.06,VWS V14.01,2013-06-19 11:03:00,
2013-06-19 07:05:00,75.6,70.7,30.03,North,0,0.0,0.0,85,0.00,,CLR,0.06,VWS V14.01,2013-06-19 11:05:00,
2013-06-19 07:07:00,75.6,70.7,30.03,North,0,0.0,0.0,85,0.00,,CLR,0.06,VWS V14.01,2013-06-19 11:07:00,
2013-06-19 07:09:00,75.6,70.7,30.03,North,0,0.0,0.0,85,0.00,,CLR,0.06,VWS V14.01,2013-06-19 11:09:00,
2013-06-19 07:10:00,75.6,70.7,30.03,North,0,0.0,0.0,85,0.00,,CLR,0.06,VWS V14.01,2013-06-19 11:10:00,
2013-06-19 07:13:00,75.7,70.9,30.03,North,0,0.0,0.0,85,0.00,,CLR,0.06,VWS V14.01,2013-06-19 11:13:00,
2013-06-19 07:14:00,75.7,70.9,30.03,North,0,0.0,0.0,85,0.00,,CLR,0.06,VWS V14.01,2013-06-19 11:14:00,
2013-06-19 07:15:00,75.7,70.9,30.03,North,0,0.0,0.0,85,0.00,,CLR,0.06,VWS V14.01,2013-06-19 11:15:00,
2013-06-19 07:19:00,75.9,71.1,30.03,North,0,0.0,0.0,85,0.00,,CLR,0.06,VWS V14.01,2013-06-19 11:19:00,
2013-06-19 07:20:00,75.9,71.1,30.03,North,0,0.0,0.0,85,0.00,,CLR,0.06,VWS V14.01,2013-06-19 11:20:00,
2013-06-19 07:21:00,75.9,71.1,30.03,North,0,0.0,0.0,85,0.00,,CLR,0.06,VWS V14.01,2013-06-19 11:21:00,
2013-06-19 07:22:00,75.9,71.1,30.03,North,0,0.0,0.0,85,0.00,,CLR,0.06,VWS V14.01,2013-06-19 11:22:00,
2013-06-19 07:26:00,75.9,71.1,30.03,North,0,0.0,0.0,85,0.00,,CLR,0.06,VWS V14.01,2013-06-19 11:26:00,
2013-06-19 07:28:00,76.1,71.3,30.03,North,0,0.0,0.0,85,0.00,,CLR,0.06,VWS V14.01,2013-06-19 11:28:00,
2013-06-19 07:30:00,76.1,71.3,30.06,North,0,0.0,0.0,85,0.00,,CLR,0.06,VWS V14.01,2013-06-19 11:30:00,
2013-06-19 07:32:00,76.1,71.3,30.06,North,0,0.0,0.0,85,0.00,,CLR,0.06,VWS V14.01,2013-06-19 11:32:00,
2013-06-19 07:33:00,76.1,71.3,30.06,North,0,0.0,0.0,85,0.00,,CLR,0.06,VWS V14.01,2013-06-19 11:33:00,
2013-06-19 07:35:00,76.3,71.4,30.06,North,0,0.0,0.0,85,0.00,,CLR,0.06,VWS V14.01,2013-06-19 11:35:00,
2013-06-19 07:36:00,76.3,71.4,30.06,North,0,0.0,0.0,85,0.00,,CLR,0.06,VWS V14.01,2013-06-19 11:36:00,
2013-06-19 07:38:00,76.3,71.4,30.06,North,0,0.0,0.0,85,0.00,,CLR,0.06,VWS V14.01,2013-06-19 11:38:00,
2013-06-19 07:40:00,76.5,71.6,30.06,North,0,0.0,0.0,85,0.00,,CLR,0.06,VWS V14.01,2013-06-19 11:40:00,
2013-06-19 07:41:00,76.5,71.6,30.06,North,0,0.0,0.0,85,0.00,,CLR,0.06,VWS V14.01,2013-06-19 11:41:00,
2013-06-19 07:45:00,76.5,71.6,30.06,North,0,0.0,0.0,85,0.00,,CLR,0.06,VWS V14.01,2013-06-19 11:45:00,
2013-06-19 07:46:00,76.6,71.8,30.06,North,0,0.0,0.0,85,0.00,,CLR,0.06,VWS V14.01,2013-06-19 11:46:00,
2013-06-19 07:47:00,76.6,71.8,30.06,North,0,0.0,0.0,85,0.00,,CLR,0.06,VWS V14.01,2013-06-19 11:47:00,
2013-06-19 07:48:00,76.6,71.8,30.06,North,0,0.0,0.0,85,0.00,,CLR,0.06,VWS V14.01,2013-06-19 11:48:00,
2013-06-19 07:53:00,76.8,72.0,30.06,North,0,0.0,0.0,85,0.00,,CLR,0.06,VWS V14.01,2013-06-19 11:53:00,
2013-06-19 07:54:00,76.8,72.0,30.06,North,0,0.0,0.0,85,0.00,,CLR,0.06,VWS V14.01,2013-06-19 11:54:00,
2013-06-19 07:55:00,76.8,72.0,30.06,North,0,0.0,0.0,85,0.00,,CLR,0.06,VWS V14.01,2013-06-19 11:55:00,
2013-06-19 07:56:00,77.0,71.8,30.06,North,0,0.0,0.0,84,0.00,,CLR,0.06,VWS V14.01,2013-06-19 11:56:00,
2013-06-19 07:59:00,77.0,71.8,30.06,North,0,0.0,0.0,84,0.00,,CLR,0.06,VWS V14.01,2013-06-19 11:59:00,
2013-06-19 08:01:00,77.2,72.0,30.06,North,0,0.0,0.0,84,0.00,,CLR,0.06,VWS V14.01,2013-06-19 12:01:00,
2013-06-19 08:02:00,77.2,72.0,30.06,North,0,0.0,0.0,84,0.00,,CLR,0.06,VWS V14.01,2013-06-19 12:02:00,
2013-06-19 08:04:00,77.4,72.2,30.06,North,0,0.0,0.0,84,0.00,,CLR,0.06,VWS V14.01,2013-06-19 12:04:00,
2013-06-19 08:06:00,77.4,72.2,30.06,North,0,0.0,0.0,84,0.00,,CLR,0.06,VWS V14.01,2013-06-19 12:06:00,
2013-06-19 08:07:00,77.4,72.2,30.06,North,0,0.0,0.0,84,0.00,,CLR,0.06,VWS V14.01,2013-06-19 12:07:00,
2013-06-19 08:09:00,77.5,72.3,30.06,North,0,0.0,0.0,84,0.00,,CLR,0.06,VWS V14.01,2013-06-19 12:09:00,
2013-06-19 08:10:00,77.5,72.3,30.06,North,0,0.0,0.0,84,0.00,,CLR,0.06,VWS V14.01,2013-06-19 12:10:00,
2013-06-19 08:11:00,77.7,72.5,30.06,North,0,0.0,0.0,84,0.00,,CLR,0.06,VWS V14.01,2013-06-19 12:11:00,
2013-06-19 08:13:00,77.7,72.5,30.06,North,0,0.0,0.0,84,0.00,,CLR,0.06,VWS V14.01,2013-06-19 12:13:00,
2013-06-19 08:14:00,77.7,72.5,30.06,North,0,0.0,0.0,84,0.00,,CLR,0.06,VWS V14.01,2013-06-19 12:14:00,
2013-06-19 08:15:00,77.9,72.3,30.06,North,0,0.0,0.0,83,0.00,,CLR,0.06,VWS V14.01,2013-06-19 12:15:00,
2013-06-19 08:17:00,77.9,72.3,30.06,North,0,0.0,0.0,83,0.00,,CLR,0.06,VWS V14.01,2013-06-19 12:17:00,
2013-06-19 08:18:00,77.9,72.3,30.06,North,0,0.0,0.0,83,0.00,,CLR,0.06,VWS V14.01,2013-06-19 12:18:00,
2013-06-19 08:19:00,78.1,72.5,30.06,North,0,0.0,0.0,83,0.00,,CLR,0.06,VWS V14.01,2013-06-19 12:19:00,
2013-06-19 08:20:00,78.1,72.5,30.06,North,0,0.0,0.0,83,0.00,,CLR,0.06,VWS V14.01,2013-06-19 12:20:00,
2013-06-19 08:23:00,78.3,72.7,30.06,North,0,0.0,0.0,83,0.00,,CLR,0.06,VWS V14.01,2013-06-19 12:23:00,
2013-06-19 08:26:00,78.4,72.8,30.06,North,0,0.0,0.0,83,0.00,,CLR,0.06,VWS V14.01,2013-06-19 12:26:00,
2013-06-19 08:28:00,78.6,73.0,30.06,North,0,0.0,0.0,83,0.00,,CLR,0.06,VWS V14.01,2013-06-19 12:28:00,
2013-06-19 08:30:00,78.6,73.0,30.06,North,0,0.0,0.0,83,0.00,,CLR,0.06,VWS V14.01,2013-06-19 12:30:00,
2013-06-19 08:31:00,78.8,72.8,30.06,North,0,0.0,0.0,82,0.00,,CLR,0.06,VWS V14.01,2013-06-19 12:31:00,
2013-06-19 08:35:00,79.0,73.0,30.06,North,0,0.0,0.0,82,0.00,,CLR,0.06,VWS V14.01,2013-06-19 12:35:00,
2013-06-19 08:36:00,79.0,73.0,30.06,North,0,0.0,0.0,82,0.00,,CLR,0.06,VWS V14.01,2013-06-19 12:36:00,
2013-06-19 08:37:00,79.0,73.0,30.06,North,0,0.0,0.0,82,0.00,,CLR,0.06,VWS V14.01,2013-06-19 12:37:00,
2013-06-19 08:40:00,79.3,73.4,30.06,North,0,0.0,0.0,82,0.00,,CLR,0.06,VWS V14.01,2013-06-19 12:40:00,
2013-06-19 08:43:00,79.5,73.6,30.06,North,0,0.0,0.0,82,0.00,,CLR,0.06,VWS V14.01,2013-06-19 12:43:00,
2013-06-19 08:46:00,79.7,73.4,30.06,North,0,0.0,0.0,81,0.00,,CLR,0.06,VWS V14.01,2013-06-19 12:46:00,
2013-06-19 08:49:00,79.9,73.5,30.06,North,0,0.0,0.0,81,0.00,,CLR,0.06,VWS V14.01,2013-06-19 12:49:00,
2013-06-19 08:50:00,80.1,73.7,30.06,North,0,0.0,0.0,81,0.00,,CLR,0.06,VWS V14.01,2013-06-19 12:50:00,
2013-06-19 08:51:00,80.1,73.7,30.06,North,0,0.0,0.0,81,0.00,,CLR,0.06,VWS V14.01,2013-06-19 12:51:00,
2013-06-19 08:55:00,80.2,73.5,30.06,North,0,0.0,0.0,80,0.00,,CLR,0.06,VWS V14.01,2013-06-19 12:55:00,
2013-06-19 08:56:00,80.4,73.7,30.06,North,0,0.0,0.0,80,0.00,,CLR,0.06,VWS V14.01,2013-06-19 12:56:00,
2013-06-19 08:58:00,80.4,73.7,30.06,North,0,0.0,0.0,80,0.00,,CLR,0.06,VWS V14.01,2013-06-19 12:58:00,
2013-06-19 09:01:00,80.6,73.5,30.06,North,0,0.0,0.0,79,0.00,,CLR,0.06,VWS V14.01,2013-06-19 13:01:00,
2013-06-19 09:02:00,80.8,73.7,30.06,North,0,0.0,0.0,79,0.00,,CLR,0.06,VWS V14.01,2013-06-19 13:02:00,
2013-06-19 09:07:00,81.1,73.6,30.06,North,0,0.0,0.0,78,0.00,,CLR,0.06,VWS V14.01,2013-06-19 13:07:00,
2013-06-19 09:09:00,81.3,73.8,30.06,North,0,0.0,0.0,78,0.00,,CLR,0.06,VWS V14.01,2013-06-19 13:09:00,
2013-06-19 09:10:00,81.3,73.8,30.06,North,0,0.0,0.0,78,0.00,,CLR,0.06,VWS V14.01,2013-06-19 13:10:00,
2013-06-19 09:12:00,81.5,74.0,30.06,North,0,0.0,0.0,78,0.00,,CLR,0.06,VWS V14.01,2013-06-19 13:12:00,
2013-06-19 09:13:00,81.5,74.0,30.06,North,0,0.0,0.0,78,0.00,,CLR,0.06,VWS V14.01,2013-06-19 13:13:00,
2013-06-19 09:15:00,81.7,73.8,30.06,North,0,0.0,0.0,77,0.00,,CLR,0.06,VWS V14.01,2013-06-19 13:15:00,
2013-06-19 09:18:00,81.9,73.9,30.06,North,0,0.0,0.0,77,0.00,,CLR,0.06,VWS V14.01,2013-06-19 13:18:00,
2013-06-19 09:19:00,81.9,73.9,30.06,North,0,0.0,0.0,77,0.00,,CLR,0.06,VWS V14.01,2013-06-19 13:19:00,
2013-06-19 09:22:00,82.0,73.7,30.06,North,0,0.0,0.0,76,0.00,,CLR,0.06,VWS V14.01,2013-06-19 13:22:00,
2013-06-19 09:25:00,82.2,73.9,30.06,North,0,0.0,0.0,76,0.00,,CLR,0.06,VWS V14.01,2013-06-19 13:25:00,
2013-06-19 09:26:00,82.2,73.9,30.06,North,0,0.0,0.0,76,0.00,,CLR,0.06,VWS V14.01,2013-06-19 13:26:00,
2013-06-19 09:28:00,82.4,73.7,30.06,North,0,0.0,0.0,75,0.00,,CLR,0.06,VWS V14.01,2013-06-19 13:28:00,
2013-06-19 09:29:00,82.4,73.7,30.06,North,0,0.0,0.0,75,0.00,,CLR,0.06,VWS V14.01,2013-06-19 13:29:00,
2013-06-19 09:30:00,82.4,73.3,30.06,North,0,0.0,0.0,74,0.00,,CLR,0.06,VWS V14.01,2013-06-19 13:30:00,
2013-06-19 09:31:00,82.6,73.5,30.06,North,0,0.0,0.0,74,0.00,,CLR,0.06,VWS V14.01,2013-06-19 13:31:00,
2013-06-19 09:33:00,82.8,73.6,30.06,North,0,0.0,0.0,74,0.00,,CLR,0.06,VWS V14.01,2013-06-19 13:33:00,
2013-06-19 09:35:00,82.8,73.2,30.06,North,0,0.0,0.0,73,0.00,,CLR,0.06,VWS V14.01,2013-06-19 13:35:00,
2013-06-19 09:36:00,82.9,73.4,30.06,North,0,0.0,0.0,73,0.00,,CLR,0.06,VWS V14.01,2013-06-19 13:36:00,
2013-06-19 09:37:00,82.9,73.0,30.06,North,0,0.0,0.0,72,0.00,,CLR,0.06,VWS V14.01,2013-06-19 13:37:00,
2013-06-19 09:38:00,82.9,73.0,30.06,North,0,0.0,0.0,72,0.00,,CLR,0.06,VWS V14.01,2013-06-19 13:38:00,
2013-06-19 09:39:00,83.1,73.2,30.06,North,0,0.0,0.0,72,0.00,,CLR,0.06,VWS V14.01,2013-06-19 13:39:00,
2013-06-19 09:41:00,83.1,73.2,30.06,North,0,0.0,0.0,72,0.00,,CLR,0.06,VWS V14.01,2013-06-19 13:41:00,
2013-06-19 09:43:00,83.3,72.9,30.06,North,0,0.0,0.0,71,0.00,,CLR,0.06,VWS V14.01,2013-06-19 13:43:00,
2013-06-19 09:44:00,83.3,72.9,30.06,North,0,0.0,0.0,71,0.00,,CLR,0.06,VWS V14.01,2013-06-19 13:44:00,
2013-06-19 09:45:00,83.3,72.9,30.06,North,0,0.0,0.0,71,0.00,,CLR,0.06,VWS V14.01,2013-06-19 13:45:00,
2013-06-19 09:47:00,83.5,72.7,30.06,North,0,0.0,0.0,70,0.00,,CLR,0.06,VWS V14.01,2013-06-19 13:47:00,
2013-06-19 09:48:00,83.5,72.7,30.06,North,0,0.0,0.0,70,0.00,,CLR,0.06,VWS V14.01,2013-06-19 13:48:00,
2013-06-19 09:49:00,83.5,72.7,30.06,North,0,0.0,0.0,70,0.00,,CLR,0.06,VWS V14.01,2013-06-19 13:49:00,
2013-06-19 09:50:00,83.7,72.4,30.06,North,0,0.0,0.0,69,0.00,,CLR,0.06,VWS V14.01,2013-06-19 13:50:00,
2013-06-19 09:51:00,83.7,72.4,30.06,North,0,0.0,0.0,69,0.00,,CLR,0.06,VWS V14.01,2013-06-19 13:51:00,
2013-06-19 09:52:00,83.8,72.6,30.06,North,0,0.0,0.0,69,0.00,,CLR,0.06,VWS V14.01,2013-06-19 13:52:00,
2013-06-19 09:55:00,84.0,72.3,30.06,North,0,0.0,0.0,68,0.00,,CLR,0.06,VWS V14.01,2013-06-19 13:55:00,
2013-06-19 09:56:00,84.0,72.3,30.06,North,0,0.0,0.0,68,0.00,,CLR,0.06,VWS V14.01,2013-06-19 13:56:00,
2013-06-19 09:57:00,84.2,72.1,30.06,North,0,0.0,0.0,67,0.00,,CLR,0.06,VWS V14.01,2013-06-19 13:57:00,
2013-06-19 09:59:00,84.2,72.1,30.06,North,0,0.0,0.0,67,0.00,,CLR,0.06,VWS V14.01,2013-06-19 13:59:00,
2013-06-19 10:00:00,84.4,71.8,30.06,North,0,0.0,0.0,66,0.00,,CLR,0.06,VWS V14.01,2013-06-19 14:00:00,
2013-06-19 10:02:00,84.4,71.8,30.06,North,0,0.0,0.0,66,0.00,,CLR,0.06,VWS V14.01,2013-06-19 14:02:00,
2013-06-19 10:03:00,84.6,71.5,30.06,North,0,0.0,0.0,65,0.00,,CLR,0.06,VWS V14.01,2013-06-19 14:03:00,
2013-06-19 10:07:00,84.7,71.2,30.06,North,0,0.0,0.0,64,0.00,,FEW014,0.06,VWS V14.01,2013-06-19 14:07:00,
2013-06-19 10:08:00,84.9,71.4,30.06,North,0,0.0,0.0,64,0.00,,FEW014,0.06,VWS V14.01,2013-06-19 14:08:00,
2013-06-19 10:12:00,85.1,71.6,30.06,North,0,0.0,0.0,64,0.00,,FEW014,0.06,VWS V14.01,2013-06-19 14:12:00,
2013-06-19 10:13:00,85.1,71.6,30.06,North,0,0.0,0.0,64,0.00,,FEW014,0.06,VWS V14.01,2013-06-19 14:13:00,
2013-06-19 10:17:00,85.3,71.3,30.06,North,0,0.0,0.0,63,0.00,,FEW014,0.06,VWS V14.01,2013-06-19 14:17:00,
2013-06-19 10:18:00,85.3,71.3,30.06,North,0,0.0,0.0,63,0.00,,FEW014,0.06,VWS V14.01,2013-06-19 14:18:00,
2013-06-19 10:20:00,85.3,71.3,30.06,North,0,0.0,0.0,63,0.00,,FEW014,0.06,VWS V14.01,2013-06-19 14:20:00,
2013-06-19 10:21:00,85.3,71.3,30.06,North,0,0.0,0.0,63,0.00,,FEW014,0.06,VWS V14.01,2013-06-19 14:21:00,
2013-06-19 10:23:00,85.3,70.8,30.06,North,0,0.0,0.0,62,0.00,,FEW014,0.06,VWS V14.01,2013-06-19 14:23:00,
2013-06-19 10:27:00,85.5,71.0,30.06,North,0,0.0,0.0,62,0.00,,FEW014,0.06,VWS V14.01,2013-06-19 14:27:00,
2013-06-19 10:28:00,85.5,71.0,30.06,North,0,0.0,0.0,62,0.00,,FEW014,0.06,VWS V14.01,2013-06-19 14:28:00,
2013-06-19 10:29:00,85.5,71.0,30.06,North,0,0.0,0.0,62,0.00,,FEW014,0.06,VWS V14.01,2013-06-19 14:29:00,
2013-06-19 10:30:00,85.5,71.0,30.06,North,0,0.0,0.0,62,0.00,,FEW014,0.06,VWS V14.01,2013-06-19 14:30:00,
2013-06-19 10:32:00,85.6,71.1,30.06,North,0,0.0,0.0,62,0.00,,FEW014,0.06,VWS V14.01,2013-06-19 14:32:00,
2013-06-19 10:34:00,85.8,71.3,30.06,North,0,0.0,0.0,62,0.00,,FEW014,0.06,VWS V14.01,2013-06-19 14:34:00,
2013-06-19 10:37:00,86.2,71.2,30.06,North,0,0.0,0.0,61,0.00,,FEW014,0.06,VWS V14.01,2013-06-19 14:37:00,
2013-06-19 10:39:00,86.4,70.8,30.06,North,0,0.0,0.0,60,0.00,,FEW014,0.06,VWS V14.01,2013-06-19 14:39:00,
2013-06-19 10:42:00,86.5,70.5,30.06,North,0,0.0,0.0,59,0.00,,FEW014,0.06,VWS V14.01,2013-06-19 14:42:00,
2013-06-19 10:44:00,86.7,70.7,30.06,North,0,0.0,0.0,59,0.00,,FEW014,0.06,VWS V14.01,2013-06-19 14:44:00,
2013-06-19 10:47:00,86.9,70.9,30.06,North,0,0.0,0.0,59,0.00,,FEW014,0.06,VWS V14.01,2013-06-19 14:47:00,
2013-06-19 10:48:00,87.1,71.0,30.06,North,0,0.0,0.0,59,0.00,,FEW014,0.06,VWS V14.01,2013-06-19 14:48:00,
2013-06-19 10:51:00,87.1,70.5,30.06,North,0,0.0,0.0,58,0.00,,FEW014,0.06,VWS V14.01,2013-06-19 14:51:00,
2013-06-19 10:52:00,87.1,70.5,30.06,North,0,0.0,0.0,58,0.00,,FEW014,0.06,VWS V14.01,2013-06-19 14:52:00,
2013-06-19 10:53:00,87.1,70.5,30.06,North,0,0.0,0.0,58,0.00,,FEW014,0.06,VWS V14.01,2013-06-19 14:53:00,
2013-06-19 10:54:00,87.1,70.5,30.06,North,0,0.0,0.0,58,0.00,,FEW014,0.06,VWS V14.01,2013-06-19 14:54:00,
2013-06-19 10:56:00,86.9,69.8,30.06,North,0,0.0,0.0,57,0.00,,FEW014,0.06,VWS V14.01,2013-06-19 14:56:00,
2013-06-19 10:58:00,86.9,69.8,30.06,North,0,0.0,0.0,57,0.00,,FEW014,0.06,VWS V14.01,2013-06-19 14:58:00,
2013-06-19 11:02:00,86.7,69.2,30.06,North,0,0.0,0.0,56,0.00,,FEW014,0.06,VWS V14.01,2013-06-19 15:02:00,
2013-06-19 11:03:00,86.7,69.2,30.06,North,0,0.0,0.0,56,0.00,,FEW014,0.06,VWS V14.01,2013-06-19 15:03:00,
2013-06-19 11:05:00,86.7,69.2,30.06,North,0,0.0,0.0,56,0.00,,BKN042,0.06,VWS V14.01,2013-06-19 15:05:00,
2013-06-19 11:07:00,86.7,68.6,30.06,North,0,0.0,0.0,55,0.00,,BKN042,0.06,VWS V14.01,2013-06-19 15:07:00,
2013-06-19 11:11:00,86.7,68.6,30.06,North,0,0.0,0.0,55,0.00,,BKN042,0.06,VWS V14.01,2013-06-19 15:11:00,
2013-06-19 11:12:00,86.7,68.6,30.06,North,0,0.0,0.0,55,0.00,,BKN042,0.06,VWS V14.01,2013-06-19 15:12:00,
2013-06-19 11:14:00,86.7,68.6,30.06,North,0,0.0,0.0,55,0.00,,BKN042,0.06,VWS V14.01,2013-06-19 15:14:00,
2013-06-19 11:17:00,87.1,68.4,30.06,North,0,0.0,0.0,54,0.00,,BKN042,0.06,VWS V14.01,2013-06-19 15:17:00,
2013-06-19 11:19:00,87.1,68.4,30.06,North,0,0.0,0.0,54,0.00,,BKN042,0.06,VWS V14.01,2013-06-19 15:19:00,
2013-06-19 11:20:00,87.3,68.6,30.06,North,0,0.0,0.0,54,0.00,,BKN042,0.06,VWS V14.01,2013-06-19 15:20:00,
2013-06-19 11:24:00,87.6,67.8,30.06,North,0,0.0,0.0,52,0.00,,BKN045,0.06,VWS V14.01,2013-06-19 15:24:00,
2013-06-19 11:25:00,87.6,67.8,30.06,North,0,0.0,0.0,52,0.00,,BKN045,0.06,VWS V14.01,2013-06-19 15:25:00,
2013-06-19 11:28:00,87.8,67.4,30.06,North,0,0.0,0.0,51,0.00,,BKN045,0.06,VWS V14.01,2013-06-19 15:28:00,
2013-06-19 11:29:00,87.8,67.4,30.06,North,0,0.0,0.0,51,0.00,,BKN045,0.06,VWS V14.01,2013-06-19 15:29:00,
2013-06-19 11:30:00,88.0,67.0,30.06,North,0,0.0,0.0,50,0.00,,BKN045,0.06,VWS V14.01,2013-06-19 15:30:00,
2013-06-19 11:33:00,88.2,67.8,30.06,North,0,0.0,0.0,51,0.00,,BKN045,0.06,VWS V14.01,2013-06-19 15:33:00,
2013-06-19 11:35:00,88.2,67.8,30.06,North,0,0.0,0.0,51,0.00,,BKN045,0.06,VWS V14.01,2013-06-19 15:35:00,
2013-06-19 11:36:00,88.3,67.9,30.06,North,0,0.0,0.0,51,0.00,,BKN045,0.06,VWS V14.01,2013-06-19 15:36:00,
2013-06-19 11:37:00,88.3,67.4,30.06,North,0,0.0,0.0,50,0.00,,BKN045,0.06,VWS V14.01,2013-06-19 15:37:00,
2013-06-19 11:38:00,88.5,67.5,30.06,North,0,0.0,0.0,50,0.00,,BKN045,0.06,VWS V14.01,2013-06-19 15:38:00,
2013-06-19 11:41:00,88.7,66.5,30.06,North,0,0.0,0.0,48,0.00,,BKN045,0.06,VWS V14.01,2013-06-19 15:41:00,
2013-06-19 11:42:00,88.7,65.9,30.06,North,0,0.0,0.0,47,0.00,,BKN045,0.06,VWS V14.01,2013-06-19 15:42:00,
2013-06-19 11:44:00,88.7,65.9,30.06,North,0,0.0,0.0,47,0.00,,BKN045,0.06,VWS V14.01,2013-06-19 15:44:00,
2013-06-19 11:46:00,88.7,65.9,30.06,North,0,0.0,0.0,47,0.00,,BKN045,0.06,VWS V14.01,2013-06-19 15:46:00,
2013-06-19 11:47:00,88.7,65.9,30.06,North,0,0.0,0.0,47,0.00,,BKN045,0.06,VWS V14.01,2013-06-19 15:47:00,
2013-06-19 11:49:00,88.7,65.9,30.06,North,0,0.0,0.0,47,0.00,,BKN045,0.06,VWS V14.01,2013-06-19 15:49:00,
2013-06-19 11:51:00,88.7,66.5,30.06,North,0,0.0,0.0,48,0.00,,BKN045,0.06,VWS V14.01,2013-06-19 15:51:00,
2013-06-19 11:53:00,88.7,65.9,30.06,North,0,0.0,0.0,47,0.00,,BKN070,0.06,VWS V14.01,2013-06-19 15:53:00,
2013-06-19 11:54:00,88.7,65.3,30.06,North,0,0.0,0.0,46,0.00,,BKN070,0.06,VWS V14.01,2013-06-19 15:54:00,
2013-06-19 11:58:00,88.7,64.7,30.06,North,0,0.0,0.0,45,0.00,,BKN070,0.06,VWS V14.01,2013-06-19 15:58:00,
2013-06-19 11:59:00,88.7,64.7,30.06,North,0,0.0,0.0,45,0.00,,BKN070,0.06,VWS V14.01,2013-06-19 15:59:00,
2013-06-19 12:02:00,88.5,65.1,30.06,North,0,0.0,0.0,46,0.00,,BKN070,0.06,VWS V14.01,2013-06-19 16:02:00,
2013-06-19 12:03:00,88.5,65.1,30.06,North,0,0.0,0.0,46,0.00,,BKN070,0.06,VWS V14.01,2013-06-19 16:03:00,
2013-06-19 12:04:00,88.5,65.1,30.06,North,0,0.0,0.0,46,0.00,,OVC070,0.06,VWS V14.01,2013-06-19 16:04:00,
2013-06-19 12:06:00,88.3,64.3,30.06,North,0,0.0,0.0,45,0.00,,OVC070,0.06,VWS V14.01,2013-06-19 16:06:00,
2013-06-19 12:07:00,88.3,64.3,30.06,North,0,0.0,0.0,45,0.00,,OVC070,0.06,VWS V14.01,2013-06-19 16:07:00,
2013-06-19 12:08:00,88.3,64.3,30.06,North,0,0.0,0.0,45,0.00,,OVC070,0.06,VWS V14.01,2013-06-19 16:08:00,
2013-06-19 12:09:00,88.3,64.3,30.06,North,0,0.0,0.0,45,0.00,,OVC070,0.06,VWS V14.01,2013-06-19 16:09:00,
2013-06-19 12:11:00,88.3,64.3,30.06,North,0,0.0,0.0,45,0.00,,OVC070,0.06,VWS V14.01,2013-06-19 16:11:00,
2013-06-19 12:13:00,88.2,64.2,30.06,North,0,0.0,0.0,45,0.00,,OVC070,0.06,VWS V14.01,2013-06-19 16:13:00,
2013-06-19 12:14:00,88.2,64.2,30.06,North,0,0.0,0.0,45,0.00,,OVC070,0.06,VWS V14.01,2013-06-19 16:14:00,
2013-06-19 12:16:00,88.3,64.9,30.06,North,0,0.0,0.0,46,0.00,,OVC070,0.06,VWS V14.01,2013-06-19 16:16:00,
2013-06-19 12:18:00,88.2,65.4,30.06,North,0,0.0,0.0,47,0.00,,OVC070,0.06,VWS V14.01,2013-06-19 16:18:00,
2013-06-19 12:20:00,88.2,65.4,30.06,North,0,0.0,0.0,47,0.00,,OVC070,0.06,VWS V14.01,2013-06-19 16:20:00,
2013-06-19 12:22:00,88.0,65.2,30.06,North,0,0.0,0.0,47,0.00,,OVC070,0.06,VWS V14.01,2013-06-19 16:22:00,
2013-06-19 12:24:00,87.8,64.5,30.06,North,0,0.0,0.0,46,0.00,,OVC070,0.06,VWS V14.01,2013-06-19 16:24:00,
2013-06-19 12:27:00,87.6,64.3,30.06,North,0,0.0,0.0,46,0.00,,OVC070,0.06,VWS V14.01,2013-06-19 16:27:00,
2013-06-19 12:28:00,87.6,64.3,30.06,North,0,0.0,0.0,46,0.00,,OVC070,0.06,VWS V14.01,2013-06-19 16:28:00,
2013-06-19 12:30:00,87.4,64.1,30.06,North,0,0.0,0.0,46,0.00,,OVC070,0.06,VWS V14.01,2013-06-19 16:30:00,
2013-06-19 12:32:00,87.4,64.8,30.06,North,0,0.0,0.0,47,0.00,,OVC070,0.06,VWS V14.01,2013-06-19 16:32:00,
2013-06-19 12:33:00,87.4,64.1,30.06,North,0,0.0,0.0,46,0.00,,OVC070,0.06,VWS V14.01,2013-06-19 16:33:00,
2013-06-19 12:35:00,87.4,64.8,30.06,North,0,0.0,0.0,47,0.00,,OVC070,0.06,VWS V14.01,2013-06-19 16:35:00,
2013-06-19 12:37:00,87.6,65.5,30.06,North,0,0.0,0.0,48,0.00,,OVC070,0.06,VWS V14.01,2013-06-19 16:37:00,
2013-06-19 12:39:00,87.6,64.9,30.06,North,0,0.0,0.0,47,0.00,,OVC070,0.06,VWS V14.01,2013-06-19 16:39:00,
2013-06-19 12:40:00,87.8,65.1,30.06,North,0,0.0,0.0,47,0.00,,OVC070,0.06,VWS V14.01,2013-06-19 16:40:00,
2013-06-19 12:41:00,88.0,65.2,30.06,North,0,0.0,0.0,47,0.00,,OVC070,0.06,VWS V14.01,2013-06-19 16:41:00,
2013-06-19 12:42:00,88.0,64.6,30.06,North,0,0.0,0.0,46,0.00,,OVC070,0.06,VWS V14.01,2013-06-19 16:42:00,
2013-06-19 12:45:00,88.3,64.9,30.06,North,0,0.0,0.0,46,0.00,,OVC070,0.06,VWS V14.01,2013-06-19 16:45:00,
2013-06-19 12:46:00,88.3,64.9,30.06,North,0,0.0,0.0,46,0.00,,OVC070,0.06,VWS V14.01,2013-06-19 16:46:00,
2013-06-19 12:47:00,88.5,65.1,30.06,North,0,0.0,0.0,46,0.00,,OVC070,0.06,VWS V14.01,2013-06-19 16:47:00,
2013-06-19 12:50:00,88.7,64.7,30.06,North,0,0.0,0.0,45,0.00,,OVC070,0.06,VWS V14.01,2013-06-19 16:50:00,
2013-06-19 12:51:00,88.7,64.7,30.06,North,0,0.0,0.0,45,0.00,,OVC070,0.06,VWS V14.01,2013-06-19 16:51:00,
2013-06-19 12:52:00,88.9,65.4,30.06,North,0,0.0,0.0,46,0.00,,OVC070,0.06,VWS V14.01,2013-06-19 16:52:00,
2013-06-19 12:53:00,88.9,65.4,30.06,North,0,0.0,0.0,46,0.00,,OVC070,0.06,VWS V14.01,2013-06-19 16:53:00,
2013-06-19 12:57:00,89.4,64.7,30.06,North,0,0.0,0.0,44,0.00,,OVC070,0.06,VWS V14.01,2013-06-19 16:57:00,
2013-06-19 12:58:00,89.4,64.0,30.06,North,0,0.0,0.0,43,0.00,,OVC070,0.06,VWS V14.01,2013-06-19 16:58:00,
2013-06-19 12:59:00,89.6,64.2,30.03,North,0,0.0,0.0,43,0.00,,OVC070,0.06,VWS V14.01,2013-06-19 16:59:00,
2013-06-19 13:02:00,90.0,64.5,30.03,North,0,0.0,0.0,43,0.00,,OVC070,0.06,VWS V14.01,2013-06-19 17:02:00,
2013-06-19 13:03:00,90.0,64.5,30.03,North,0,0.0,0.0,43,0.00,,OVC070,0.06,VWS V14.01,2013-06-19 17:03:00,
2013-06-19 13:05:00,90.3,64.8,30.03,North,0,0.0,0.0,43,0.00,,BKN048,0.06,VWS V14.01,2013-06-19 17:05:00,
2013-06-19 13:07:00,90.5,65.0,30.03,North,0,0.0,0.0,43,0.00,,BKN048,0.06,VWS V14.01,2013-06-19 17:07:00,
2013-06-19 13:08:00,90.7,65.1,30.03,North,0,0.0,0.0,43,0.00,,BKN048,0.06,VWS V14.01,2013-06-19 17:08:00,
2013-06-19 13:09:00,90.9,65.3,30.03,North,0,0.0,0.0,43,0.00,,BKN048,0.06,VWS V14.01,2013-06-19 17:09:00,
2013-06-19 13:11:00,91.2,64.9,30.03,North,0,0.0,0.0,42,0.00,,BKN048,0.06,VWS V14.01,2013-06-19 17:11:00,
2013-06-19 13:13:00,91.4,64.4,30.03,North,0,0.0,0.0,41,0.00,,BKN048,0.06,VWS V14.01,2013-06-19 17:13:00,
2013-06-19 13:16:00,91.6,64.6,30.03,North,0,0.0,0.0,41,0.00,,BKN048,0.06,VWS V14.01,2013-06-19 17:16:00,
2013-06-19 13:17:00,91.6,64.6,30.03,North,0,0.0,0.0,41,0.00,,BKN048,0.06,VWS V14.01,2013-06-19 17:17:00,
2013-06-19 13:19:00,91.2,63.5,30.03,North,0,0.0,0.0,40,0.00,,BKN048,0.06,VWS V14.01,2013-06-19 17:19:00,
2013-06-19 13:20:00,91.2,63.5,30.03,North,0,0.0,0.0,40,0.00,,BKN048,0.06,VWS V14.01,2013-06-19 17:20:00,
2013-06-19 13:23:00,90.9,64.6,30.03,North,0,0.0,0.0,42,0.00,,BKN048,0.06,VWS V14.01,2013-06-19 17:23:00,
2013-06-19 13:25:00,90.7,64.5,30.03,North,0,0.0,0.0,42,0.00,,BKN048,0.06,VWS V14.01,2013-06-19 17:25:00,
2013-06-19 13:26:00,90.5,65.0,30.03,North,0,0.0,0.0,43,0.00,,BKN048,0.06,VWS V14.01,2013-06-19 17:26:00,
2013-06-19 13:28:00,90.1,64.7,30.03,North,0,0.0,0.0,43,0.00,,BKN048,0.06,VWS V14.01,2013-06-19 17:28:00,
2013-06-19 13:30:00,90.0,65.1,30.03,North,0,0.0,0.0,44,0.00,,BKN048,0.06,VWS V14.01,2013-06-19 17:30:00,
2013-06-19 13:31:00,90.0,65.1,30.03,North,0,0.0,0.0,44,0.00,,BKN048,0.06,VWS V14.01,2013-06-19 17:31:00,
2013-06-19 13:32:00,89.8,63.7,30.03,North,0,0.0,0.0,42,0.00,,BKN048,0.06,VWS V14.01,2013-06-19 17:32:00,
2013-06-19 13:34:00,89.6,64.2,30.03,North,0,0.0,0.0,43,0.00,,BKN048,0.06,VWS V14.01,2013-06-19 17:34:00,
2013-06-19 13:37:00,89.4,64.7,30.03,North,0,0.0,0.0,44,0.00,,BKN048,0.06,VWS V14.01,2013-06-19 17:37:00,
2013-06-19 13:39:00,89.4,65.3,30.03,North,0,0.0,0.0,45,0.00,,BKN048,0.06,VWS V14.01,2013-06-19 17:39:00,
2013-06-19 13:40:00,89.4,65.3,30.03,North,0,0.0,0.0,45,0.00,,BKN048,0.06,VWS V14.01,2013-06-19 17:40:00,
2013-06-19 13:43:00,89.2,65.1,30.03,North,0,0.0,0.0,45,0.00,,BKN048,0.06,VWS V14.01,2013-06-19 17:43:00,
2013-06-19 13:44:00,89.2,65.1,30.03,North,0,0.0,0.0,45,0.00,,BKN048,0.06,VWS V14.01,2013-06-19 17:44:00,
2013-06-19 13:45:00,89.2,65.8,30.03,North,0,0.0,0.0,46,0.00,,BKN048,0.06,VWS V14.01,2013-06-19 17:45:00,
2013-06-19 13:47:00,89.1,65.6,30.03,North,0,0.0,0.0,46,0.00,,BKN048,0.06,VWS V14.01,2013-06-19 17:47:00,
2013-06-19 13:48:00,89.1,65.6,30.03,North,0,0.0,0.0,46,0.00,,BKN048,0.06,VWS V14.01,2013-06-19 17:48:00,
2013-06-19 13:49:00,89.1,66.2,30.03,North,0,0.0,0.0,47,0.00,,BKN048,0.06,VWS V14.01,2013-06-19 17:49:00,
2013-06-19 13:50:00,88.9,66.1,30.03,North,0,0.0,0.0,47,0.00,,BKN048,0.06,VWS V14.01,2013-06-19 17:50:00,
2013-06-19 13:52:00,88.9,66.1,30.03,North,0,0.0,0.0,47,0.00,,BKN048,0.06,VWS V14.01,2013-06-19 17:52:00,
2013-06-19 13:54:00,88.7,65.9,30.03,North,0,0.0,0.0,47,0.00,,BKN048,0.06,VWS V14.01,2013-06-19 17:54:00,
2013-06-19 13:57:00,88.7,66.5,30.03,North,0,0.0,0.0,48,0.00,,BKN048,0.06,VWS V14.01,2013-06-19 17:57:00,
2013-06-19 13:58:00,88.5,65.7,30.03,North,0,0.0,0.0,47,0.00,,BKN048,0.06,VWS V14.01,2013-06-19 17:58:00,
2013-06-19 14:01:00,88.5,66.3,30.03,North,0,0.0,0.0,48,0.00,,BKN048,0.06,VWS V14.01,2013-06-19 18:01:00,
2013-06-19 14:03:00,88.3,66.2,30.03,North,0,0.0,0.0,48,0.00,,BKN048,0.06,VWS V14.01,2013-06-19 18:03:00,
2013-06-19 14:04:00,88.3,66.2,30.03,North,0,0.0,0.0,48,0.00,,OVC055,0.06,VWS V14.01,2013-06-19 18:04:00,
2013-06-19 14:05:00,88.3,66.2,30.03,North,0,0.0,0.0,48,0.00,,OVC055,0.06,VWS V14.01,2013-06-19 18:05:00,
2013-06-19 14:06:00,88.3,66.2,30.03,North,0,0.0,0.0,48,0.00,,OVC055,0.06,VWS V14.01,2013-06-19 18:06:00,
2013-06-19 14:10:00,88.2,66.0,30.03,North,0,0.0,0.0,48,0.00,,OVC055,0.06,VWS V14.01,2013-06-19 18:10:00,
2013-06-19 14:11:00,88.2,66.0,30.03,North,0,0.0,0.0,48,0.00,,OVC055,0.06,VWS V14.01,2013-06-19 18:11:00,
2013-06-19 14:15:00,88.2,66.6,30.03,North,0,0.0,0.0,49,0.00,,OVC055,0.06,VWS V14.01,2013-06-19 18:15:00,
2013-06-19 14:16:00,88.2,66.6,30.03,North,0,0.0,0.0,49,0.00,,OVC055,0.06,VWS V14.01,2013-06-19 18:16:00,
2013-06-19 14:18:00,88.2,66.6,30.03,North,0,0.0,0.0,49,0.00,,OVC055,0.06,VWS V14.01,2013-06-19 18:18:00,
2013-06-19 14:22:00,88.5,66.9,30.03,North,0,0.0,0.0,49,0.00,,OVC055,0.06,VWS V14.01,2013-06-19 18:22:00,
2013-06-19 14:23:00,88.5,66.3,30.03,North,0,0.0,0.0,48,0.00,,OVC055,0.06,VWS V14.01,2013-06-19 18:23:00,
2013-06-19 14:25:00,88.7,66.5,30.03,North,0,0.0,0.0,48,0.00,,OVC055,0.06,VWS V14.01,2013-06-19 18:25:00,
2013-06-19 14:29:00,88.7,66.5,30.03,North,0,0.0,0.0,48,0.00,,OVC055,0.06,VWS V14.01,2013-06-19 18:29:00,
2013-06-19 14:30:00,88.7,66.5,30.03,North,0,0.0,0.0,48,0.00,,OVC055,0.06,VWS V14.01,2013-06-19 18:30:00,
2013-06-19 14:31:00,89.1,68.0,30.03,North,0,0.0,0.0,50,0.00,,OVC055,0.06,VWS V14.01,2013-06-19 18:31:00,
2013-06-19 14:34:00,89.1,68.0,30.03,North,0,0.0,0.0,50,0.00,,OVC055,0.06,VWS V14.01,2013-06-19 18:34:00,
2013-06-19 14:35:00,89.1,68.0,30.03,North,0,0.0,0.0,50,0.00,,OVC055,0.06,VWS V14.01,2013-06-19 18:35:00,
2013-06-19 14:36:00,89.1,68.0,30.03,North,0,0.0,0.0,50,0.00,,OVC055,0.06,VWS V14.01,2013-06-19 18:36:00,
2013-06-19 14:37:00,89.1,68.0,30.03,North,0,0.0,0.0,50,0.00,,OVC055,0.06,VWS V14.01,2013-06-19 18:37:00,
2013-06-19 14:40:00,89.1,68.0,30.03,North,0,0.0,0.0,50,0.00,,OVC055,0.06,VWS V14.01,2013-06-19 18:40:00,
2013-06-19 14:41:00,89.1,68.0,30.03,North,0,0.0,0.0,50,0.00,,OVC055,0.06,VWS V14.01,2013-06-19 18:41:00,
2013-06-19 14:42:00,89.1,68.0,30.03,North,0,0.0,0.0,50,0.00,,OVC055,0.06,VWS V14.01,2013-06-19 18:42:00,
2013-06-19 14:43:00,89.4,67.8,30.03,North,0,0.0,0.0,49,0.00,,OVC055,0.06,VWS V14.01,2013-06-19 18:43:00,
2013-06-19 14:48:00,89.2,68.2,30.00,North,0,0.0,0.0,50,0.00,,OVC055,0.06,VWS V14.01,2013-06-19 18:48:00,
2013-06-19 14:49:00,89.2,68.2,30.00,North,0,0.0,0.0,50,0.00,,OVC055,0.06,VWS V14.01,2013-06-19 18:49:00,
2013-06-19 14:50:00,89.2,68.2,30.00,North,0,0.0,0.0,50,0.00,,OVC055,0.06,VWS V14.01,2013-06-19 18:50:00,
2013-06-19 14:52:00,89.2,68.2,30.00,North,0,0.0,0.0,50,0.00,,OVC055,0.06,VWS V14.01,2013-06-19 18:52:00,
2013-06-19 14:55:00,89.2,68.8,30.00,North,0,0.0,0.0,51,0.00,,OVC055,0.06,VWS V14.01,2013-06-19 18:55:00,
2013-06-19 14:56:00,89.2,68.8,30.00,North,0,0.0,0.0,51,0.00,,OVC055,0.06,VWS V14.01,2013-06-19 18:56:00,
2013-06-19 14:57:00,89.2,68.8,30.00,North,0,0.0,0.0,51,0.00,,OVC055,0.06,VWS V14.01,2013-06-19 18:57:00,
2013-06-19 14:58:00,89.2,68.8,30.00,North,0,0.0,0.0,51,0.00,,OVC055,0.06,VWS V14.01,2013-06-19 18:58:00,
2013-06-19 15:02:00,89.2,68.8,30.00,North,0,0.0,0.0,51,0.00,,OVC055,0.06,VWS V14.01,2013-06-19 19:02:00,
2013-06-19 15:03:00,89.2,68.8,30.00,North,0,0.0,0.0,51,0.00,,OVC055,0.06,VWS V14.01,2013-06-19 19:03:00,
2013-06-19 15:05:00,89.2,68.2,30.00,North,0,0.0,0.0,50,0.00,,SCT036,0.06,VWS V14.01,2013-06-19 19:05:00,
2013-06-19 15:06:00,89.4,68.3,30.00,North,0,0.0,0.0,50,0.00,,SCT036,0.06,VWS V14.01,2013-06-19 19:06:00,
2013-06-19 15:08:00,89.4,68.3,30.00,North,0,0.0,0.0,50,0.00,,SCT036,0.06,VWS V14.01,2013-06-19 19:08:00,
2013-06-19 15:09:00,89.4,68.3,30.00,North,0,0.0,0.0,50,0.00,,SCT036,0.06,VWS V14.01,2013-06-19 19:09:00,
2013-06-19 15:11:00,89.4,67.8,30.00,North,0,0.0,0.0,49,0.00,,SCT036,0.06,VWS V14.01,2013-06-19 19:11:00,
2013-06-19 15:13:00,89.4,67.8,30.00,North,0,0.0,0.0,49,0.00,,SCT036,0.06,VWS V14.01,2013-06-19 19:13:00,
2013-06-19 15:14:00,89.4,67.8,30.00,North,0,0.0,0.0,49,0.00,,SCT036,0.06,VWS V14.01,2013-06-19 19:14:00,
2013-06-19 15:15:00,89.6,67.3,30.00,North,0,0.0,0.0,48,0.00,,SCT036,0.06,VWS V14.01,2013-06-19 19:15:00,
2013-06-19 15:16:00,89.6,67.3,30.00,North,0,0.0,0.0,48,0.00,,SCT036,0.06,VWS V14.01,2013-06-19 19:16:00,
2013-06-19 15:18:00,89.6,67.9,30.00,North,0,0.0,0.0,49,0.00,,SCT036,0.06,VWS V14.01,2013-06-19 19:18:00,
2013-06-19 15:19:00,89.6,67.9,30.00,North,0,0.0,0.0,49,0.00,,SCT036,0.06,VWS V14.01,2013-06-19 19:19:00,
2013-06-19 15:21:00,89.8,67.5,30.00,North,0,0.0,0.0,48,0.00,,SCT036,0.06,VWS V14.01,2013-06-19 19:21:00,
2013-06-19 15:25:00,90.0,65.8,30.00,North,0,0.0,0.0,45,0.00,,SCT036,0.06,VWS V14.01,2013-06-19 19:25:00,
2013-06-19 15:26:00,90.0,65.8,30.00,North,0,0.0,0.0,45,0.00,,SCT036,0.06,VWS V14.01,2013-06-19 19:26:00,
2013-06-19 15:28:00,89.8,66.3,30.00,North,0,0.0,0.0,46,0.00,,SCT036,0.06,VWS V14.01,2013-06-19 19:28:00,
2013-06-19 15:30:00,89.8,66.3,30.00,North,0,0.0,0.0,46,0.00,,SCT036,0.06,VWS V14.01,2013-06-19 19:30:00,
2013-06-19 15:33:00,89.8,66.9,30.00,North,0,0.0,0.0,47,0.00,,SCT036,0.06,VWS V14.01,2013-06-19 19:33:00,
2013-06-19 15:36:00,89.8,66.3,30.00,North,0,0.0,0.0,46,0.00,,SCT036,0.06,VWS V14.01,2013-06-19 19:36:00,
2013-06-19 15:37:00,89.8,66.3,30.00,North,0,0.0,0.0,46,0.00,,SCT036,0.06,VWS V14.01,2013-06-19 19:37:00,
2013-06-19 15:38:00,89.8,66.3,30.00,North,0,0.0,0.0,46,0.00,,SCT036,0.06,VWS V14.01,2013-06-19 19:38:00,
2013-06-19 15:39:00,90.0,66.4,30.00,North,0,0.0,0.0,46,0.00,,SCT036,0.06,VWS V14.01,2013-06-19 19:39:00,
2013-06-19 15:42:00,90.0,66.4,30.00,North,0,0.0,0.0,46,0.00,,SCT036,0.06,VWS V14.01,2013-06-19 19:42:00,
2013-06-19 15:43:00,90.0,66.4,30.00,North,0,0.0,0.0,46,0.00,,SCT036,0.06,VWS V14.01,2013-06-19 19:43:00,
2013-06-19 15:44:00,90.0,65.8,30.00,North,0,0.0,0.0,45,0.00,,SCT036,0.06,VWS V14.01,2013-06-19 19:44:00,
2013-06-19 15:45:00,90.0,65.8,30.00,North,0,0.0,0.0,45,0.00,,SCT036,0.06,VWS V14.01,2013-06-19 19:45:00,
2013-06-19 15:48:00,89.8,65.6,30.00,North,0,0.0,0.0,45,0.00,,SCT036,0.06,VWS V14.01,2013-06-19 19:48:00,
2013-06-19 15:51:00,89.8,66.3,30.00,North,0,0.0,0.0,46,0.00,,SCT036,0.06,VWS V14.01,2013-06-19 19:51:00,
2013-06-19 15:52:00,89.6,66.1,30.00,North,0,0.0,0.0,46,0.00,,SCT036,0.06,VWS V14.01,2013-06-19 19:52:00,
2013-06-19 15:57:00,89.8,66.3,30.00,North,0,0.0,0.0,46,0.00,,SCT036,0.06,VWS V14.01,2013-06-19 19:57:00,
2013-06-19 15:59:00,89.8,66.3,30.00,North,0,0.0,0.0,46,0.00,,SCT036,0.06,VWS V14.01,2013-06-19 19:59:00,
2013-06-19 16:01:00,89.8,65.6,30.00,North,0,0.0,0.0,45,0.00,,SCT036,0.06,VWS V14.01,2013-06-19 20:01:00,
2013-06-19 16:03:00,89.8,65.6,30.00,North,0,0.0,0.0,45,0.00,,FEW025,0.06,VWS V14.01,2013-06-19 20:03:00,
2013-06-19 16:04:00,89.6,66.1,30.00,North,0,0.0,0.0,46,0.00,,FEW025,0.06,VWS V14.01,2013-06-19 20:04:00,
2013-06-19 16:05:00,89.6,65.5,30.00,North,0,0.0,0.0,45,0.00,,FEW025,0.06,VWS V14.01,2013-06-19 20:05:00,
2013-06-19 16:09:00,89.4,65.9,30.00,North,0,0.0,0.0,46,0.00,,FEW025,0.06,VWS V14.01,2013-06-19 20:09:00,
2013-06-19 16:10:00,89.4,65.9,30.00,North,0,0.0,0.0,46,0.00,,FEW025,0.06,VWS V14.01,2013-06-19 20:10:00,
2013-06-19 16:12:00,89.2,65.8,30.00,North,0,0.0,0.0,46,0.00,,FEW025,0.06,VWS V14.01,2013-06-19 20:12:00,
2013-06-19 16:13:00,89.2,65.1,30.00,North,0,0.0,0.0,45,0.00,,FEW025,0.06,VWS V14.01,2013-06-19 20:13:00,
2013-06-19 16:14:00,89.2,65.1,30.00,North,0,0.0,0.0,45,0.00,,FEW025,0.06,VWS V14.01,2013-06-19 20:14:00,
2013-06-19 16:16:00,89.2,65.1,30.00,North,0,0.0,0.0,45,0.00,,FEW025,0.06,VWS V14.01,2013-06-19 20:16:00,
2013-06-19 16:18:00,89.2,66.4,30.00,North,0,0.0,0.0,47,0.00,,FEW025,0.06,VWS V14.01,2013-06-19 20:18:00,
2013-06-19 16:21:00,89.2,65.1,30.00,North,0,0.0,0.0,45,0.00,,FEW025,0.06,VWS V14.01,2013-06-19 20:21:00,
2013-06-19 16:22:00,89.4,65.3,30.00,North,0,0.0,0.0,45,0.00,,FEW025,0.06,VWS V14.01,2013-06-19 20:22:00,
2013-06-19 16:24:00,89.4,65.3,30.00,North,0,0.0,0.0,45,0.00,,FEW025,0.06,VWS V14.01,2013-06-19 20:24:00,
2013-06-19 16:27:00,89.6,65.5,30.00,North,0,0.0,0.0,45,0.00,,FEW025,0.06,VWS V14.01,2013-06-19 20:27:00,
2013-06-19 16:29:00,89.8,65.0,30.03,North,0,0.0,0.0,44,0.00,,FEW025,0.06,VWS V14.01,2013-06-19 20:29:00,
2013-06-19 16:30:00,89.8,64.3,30.03,North,0,0.0,0.0,43,0.00,,FEW025,0.06,VWS V14.01,2013-06-19 20:30:00,
2013-06-19 16:32:00,89.8,61.5,30.03,North,0,0.0,0.0,39,0.00,,FEW025,0.06,VWS V14.01,2013-06-19 20:32:00,
2013-06-19 16:33:00,89.8,61.5,30.03,North,0,0.0,0.0,39,0.00,,FEW025,0.06,VWS V14.01,2013-06-19 20:33:00,
2013-06-19 16:36:00,89.6,60.7,30.03,North,0,0.0,0.0,38,0.00,,FEW025,0.06,VWS V14.01,2013-06-19 20:36:00,
2013-06-19 16:38:00,89.2,60.3,30.03,North,0,0.0,0.0,38,0.00,,FEW025,0.06,VWS V14.01,2013-06-19 20:38:00,
2013-06-19 16:40:00,88.9,60.0,30.03,North,0,0.0,0.0,38,0.00,,FEW025,0.06,VWS V14.01,2013-06-19 20:40:00,
2013-06-19 16:41:00,88.9,60.0,30.03,North,0,0.0,0.0,38,0.00,,FEW025,0.06,VWS V14.01,2013-06-19 20:41:00,
2013-06-19 16:46:00,88.2,59.4,30.00,North,0,0.0,0.0,38,0.00,,FEW025,0.06,VWS V14.01,2013-06-19 20:46:00,
2013-06-19 16:47:00,88.0,59.2,30.00,North,0,0.0,0.0,38,0.00,,FEW025,0.06,VWS V14.01,2013-06-19 20:47:00,
2013-06-19 16:48:00,87.8,59.1,30.00,North,0,0.0,0.0,38,0.00,,FEW025,0.06,VWS V14.01,2013-06-19 20:48:00,
2013-06-19 16:50:00,87.4,58.7,30.00,North,0,0.0,0.0,38,0.00,,FEW025,0.06,VWS V14.01,2013-06-19 20:50:00,
2013-06-19 16:52:00,87.1,58.4,30.00,North,0,0.0,0.0,38,0.00,,FEW025,0.06,VWS V14.01,2013-06-19 20:52:00,
2013-06-19 16:53:00,86.9,57.5,30.00,North,0,0.0,0.0,37,0.00,,FEW025,0.06,VWS V14.01,2013-06-19 20:53:00,
2013-06-19 16:54:00,86.9,57.5,30.00,North,0,0.0,0.0,37,0.00,,FEW025,0.06,VWS V14.01,2013-06-19 20:54:00,
2013-06-19 16:55:00,86.9,57.5,30.00,North,0,0.0,0.0,37,0.00,,FEW025,0.06,VWS V14.01,2013-06-19 20:55:00,
2013-06-19 16:56:00,86.9,57.5,30.00,North,0,0.0,0.0,37,0.00,,FEW025,0.06,VWS V14.01,2013-06-19 20:56:00,
2013-06-19 17:00:00,85.8,57.3,30.03,North,0,0.0,0.0,38,0.00,,FEW025,0.06,VWS V14.01,2013-06-19 21:00:00,
2013-06-19 17:03:00,85.5,57.0,30.03,North,0,0.0,0.0,38,0.00,,BKN045,0.06,VWS V14.01,2013-06-19 21:03:00,
2013-06-19 17:05:00,84.7,57.1,30.03,North,0,0.0,0.0,39,0.00,,BKN045,0.06,VWS V14.01,2013-06-19 21:05:00,
2013-06-19 17:06:00,84.6,56.9,30.03,North,0,0.0,0.0,39,0.00,,BKN045,0.06,VWS V14.01,2013-06-19 21:06:00,
2013-06-19 17:08:00,84.6,56.9,30.03,North,0,0.0,0.0,39,0.00,,BKN045,0.06,VWS V14.01,2013-06-19 21:08:00,
2013-06-19 17:10:00,84.2,57.3,30.03,North,0,0.0,0.0,40,0.00,,BKN045,0.06,VWS V14.01,2013-06-19 21:10:00,
2013-06-19 17:13:00,83.8,57.7,30.03,North,0,0.0,0.0,41,0.00,,BKN045,0.06,VWS V14.01,2013-06-19 21:13:00,
2013-06-19 17:15:00,83.7,57.5,30.03,North,0,0.0,0.0,41,0.00,,BKN045,0.06,VWS V14.01,2013-06-19 21:15:00,
2013-06-19 17:18:00,83.5,58.0,30.03,North,0,0.0,0.0,42,0.00,,BKN045,0.06,VWS V14.01,2013-06-19 21:18:00,
2013-06-19 17:19:00,83.3,57.8,30.03,North,0,0.0,0.0,42,0.00,,BKN045,0.06,VWS V14.01,2013-06-19 21:19:00,
2013-06-19 17:21:00,83.1,57.7,30.03,North,0,0.0,0.0,42,0.00,,BKN045,0.06,VWS V14.01,2013-06-19 21:21:00,
2013-06-19 17:24:00,82.8,58.0,30.03,North,0,0.0,0.0,43,0.00,,BKN045,0.06,VWS V14.01,2013-06-19 21:24:00,
2013-06-19 17:26:00,82.6,57.8,30.03,North,0,0.0,0.0,43,0.00,,BKN045,0.06,VWS V14.01,2013-06-19 21:26:00,
2013-06-19 17:27:00,82.6,57.8,30.03,North,0,0.0,0.0,43,0.00,,BKN045,0.06,VWS V14.01,2013-06-19 21:27:00,
2013-06-19 17:30:00,82.2,58.8,30.03,North,0,0.0,0.0,45,0.00,,BKN045,0.06,VWS V14.01,2013-06-19 21:30:00,
2013-06-19 17:31:00,82.2,59.4,30.03,North,0,0.0,0.0,46,0.00,,BKN045,0.06,VWS V14.01,2013-06-19 21:31:00,
2013-06-19 17:35:00,81.3,62.6,30.03,North,0,0.0,0.0,53,0.08,,BKN045,0.14,VWS V14.01,2013-06-19 21:35:00,
2013-06-19 17:36:00,81.0,63.3,30.03,North,0,0.0,0.0,55,0.09,,BKN045,0.15,VWS V14.01,2013-06-19 21:36:00,
2013-06-19 17:37:00,81.0,63.3,30.03,North,0,0.0,0.0,55,0.12,,BKN045,0.17,VWS V14.01,2013-06-19 21:37:00,
2013-06-19 17:38:00,80.4,63.8,30.03,North,0,0.0,0.0,57,0.14,,BKN045,0.20,VWS V14.01,2013-06-19 21:38:00,
2013-06-19 17:40:00,79.9,63.8,30.03,North,0,0.0,0.0,58,0.16,,BKN045,0.22,VWS V14.01,2013-06-19 21:40:00,
2013-06-19 17:42:00,79.3,63.8,30.03,North,0,0.0,0.0,59,0.17,,BKN045,0.23,VWS V14.01,2013-06-19 21:42:00,
2013-06-19 17:44:00,79.0,63.4,30.06,North,0,0.0,0.0,59,0.19,,OVC070,0.24,VWS V14.01,2013-06-19 21:44:00,
2013-06-19 17:46:00,78.4,63.9,30.06,North,0,0.0,0.0,61,0.20,,OVC070,0.26,VWS V14.01,2013-06-19 21:46:00,
2013-06-19 17:47:00,78.3,64.2,30.06,North,0,0.0,0.0,62,0.21,,OVC070,0.27,VWS V14.01,2013-06-19 21:47:00,
2013-06-19 17:48:00,78.1,64.0,30.06,North,0,0.0,0.0,62,0.21,,OVC070,0.27,VWS V14.01,2013-06-19 21:48:00,
2013-06-19 17:49:00,77.9,63.8,30.06,North,0,0.0,0.0,62,0.21,,OVC070,0.27,VWS V14.01,2013-06-19 21:49:00,
2013-06-19 17:51:00,77.7,64.1,30.06,North,0,0.0,0.0,63,0.21,,OVC070,0.27,VWS V14.01,2013-06-19 21:51:00,
2013-06-19 17:54:00,77.2,63.6,30.06,North,0,0.0,0.0,63,0.21,,OVC070,0.27,VWS V14.01,2013-06-19 21:54:00,
2013-06-19 17:56:00,77.2,64.1,30.06,North,0,0.0,0.0,64,0.21,,OVC070,0.27,VWS V14.01,2013-06-19 21:56:00,
2013-06-19 17:57:00,77.0,64.3,30.06,North,0,0.0,0.0,65,0.22,,OVC070,0.28,VWS V14.01,2013-06-19 21:57:00,
2013-06-19 17:59:00,76.6,64.4,30.06,North,0,0.0,0.0,66,0.22,,OVC070,0.28,VWS V14.01,2013-06-19 21:59:00,
2013-06-19 18:02:00,76.5,64.3,30.06,North,0,0.0,0.0,66,0.22,,OVC070,0.28,VWS V14.01,2013-06-19 22:02:00,
2013-06-19 18:03:00,76.5,64.7,30.06,North,0,0.0,0.0,67,0.22,,OVC080,0.28,VWS V14.01,2013-06-19 22:03:00,
2013-06-19 18:04:00,76.3,64.5,30.06,North,0,0.0,0.0,67,0.22,,OVC080,0.28,VWS V14.01,2013-06-19 22:04:00,
2013-06-19 18:06:00,76.3,64.9,30.06,North,0,0.0,0.0,68,0.22,,OVC080,0.28,VWS V14.01,2013-06-19 22:06:00,
2013-06-19 18:08:00,76.1,64.8,30.06,North,0,0.0,0.0,68,0.22,,OVC080,0.28,VWS V14.01,2013-06-19 22:08:00,
2013-06-19 18:09:00,76.1,65.2,30.06,North,0,0.0,0.0,69,0.22,,OVC080,0.28,VWS V14.01,2013-06-19 22:09:00,
2013-06-19 18:10:00,76.1,65.2,30.06,North,0,0.0,0.0,69,0.22,,OVC080,0.28,VWS V14.01,2013-06-19 22:10:00,
2013-06-19 18:14:00,76.1,65.6,30.06,North,0,0.0,0.0,70,0.22,,OVC080,0.28,VWS V14.01,2013-06-19 22:14:00,
2013-06-19 18:15:00,76.1,66.0,30.06,North,0,0.0,0.0,71,0.22,,OVC080,0.28,VWS V14.01,2013-06-19 22:15:00,
2013-06-19 18:17:00,76.1,66.4,30.06,North,0,0.0,0.0,72,0.22,,OVC080,0.28,VWS V14.01,2013-06-19 22:17:00,
2013-06-19 18:19:00,76.1,66.4,30.06,North,0,0.0,0.0,72,0.22,,OVC080,0.28,VWS V14.01,2013-06-19 22:19:00,
2013-06-19 18:20:00,76.1,66.4,30.06,North,0,0.0,0.0,72,0.22,,OVC080,0.28,VWS V14.01,2013-06-19 22:20:00,
2013-06-19 18:22:00,76.1,66.8,30.06,North,0,0.0,0.0,73,0.22,,OVC080,0.28,VWS V14.01,2013-06-19 22:22:00,
2013-06-19 18:26:00,76.1,66.8,30.06,North,0,0.0,0.0,73,0.22,,OVC080,0.28,VWS V14.01,2013-06-19 22:26:00,
2013-06-19 18:27:00,76.1,66.8,30.06,North,0,0.0,0.0,73,0.22,,OVC080,0.28,VWS V14.01,2013-06-19 22:27:00,
2013-06-19 18:29:00,76.3,67.4,30.03,North,0,0.0,0.0,74,0.22,,OVC080,0.28,VWS V14.01,2013-06-19 22:29:00,
2013-06-19 18:30:00,76.3,67.8,30.03,North,0,0.0,0.0,75,0.22,,OVC080,0.28,VWS V14.01,2013-06-19 22:30:00,
2013-06-19 18:33:00,76.5,68.3,30.03,North,0,0.0,0.0,76,0.19,,OVC080,0.28,VWS V14.01,2013-06-19 22:33:00,
2013-06-19 18:34:00,76.5,68.3,30.03,North,0,0.0,0.0,76,0.17,,OVC080,0.28,VWS V14.01,2013-06-19 22:34:00,
2013-06-19 18:38:00,76.6,68.5,30.03,North,0,0.0,0.0,76,0.10,,OVC080,0.28,VWS V14.01,2013-06-19 22:38:00,
2013-06-19 18:39:00,76.6,68.5,30.03,North,0,0.0,0.0,76,0.08,,OVC080,0.28,VWS V14.01,2013-06-19 22:39:00,
2013-06-19 18:42:00,76.6,68.5,30.03,North,0,0.0,0.0,76,0.05,,OVC080,0.28,VWS V14.01,2013-06-19 22:42:00,
2013-06-19 18:43:00,76.6,68.5,30.06,North,0,0.0,0.0,76,0.05,,BKN100,0.28,VWS V14.01,2013-06-19 22:43:00,
2013-06-19 18:44:00,76.8,68.7,30.06,North,0,0.0,0.0,76,0.03,,BKN100,0.28,VWS V14.01,2013-06-19 22:44:00,
2013-06-19 18:46:00,76.8,68.7,30.06,North,0,0.0,0.0,76,0.03,,BKN100,0.28,VWS V14.01,2013-06-19 22:46:00,
2013-06-19 18:50:00,77.0,68.9,30.06,North,0,0.0,0.0,76,0.01,,BKN100,0.28,VWS V14.01,2013-06-19 22:50:00,
2013-06-19 18:52:00,77.0,68.9,30.06,North,0,0.0,0.0,76,0.01,,BKN100,0.28,VWS V14.01,2013-06-19 22:52:00,
2013-06-19 18:55:00,77.0,68.9,30.06,North,0,0.0,0.0,76,0.01,,BKN100,0.28,VWS V14.01,2013-06-19 22:55:00,
2013-06-19 18:58:00,77.2,69.0,30.03,North,0,0.0,0.0,76,0.00,,BKN100,0.28,VWS V14.01,2013-06-19 22:58:00,
2013-06-19 19:01:00,77.4,68.8,30.03,North,0,0.0,0.0,75,0.00,,BKN100,0.28,VWS V14.01,2013-06-19 23:01:00,
2013-06-19 19:03:00,77.5,69.0,30.03,North,0,0.0,0.0,75,0.00,,BKN100,0.28,VWS V14.01,2013-06-19 23:03:00,
2013-06-19 19:04:00,77.5,69.0,30.03,North,0,0.0,0.0,75,0.00,,BKN100,0.28,VWS V14.01,2013-06-19 23:04:00,
2013-06-19 19:05:00,77.7,69.2,30.03,North,0,0.0,0.0,75,0.00,,BKN100,0.28,VWS V14.01,2013-06-19 23:05:00,
2013-06-19 19:10:00,77.9,69.3,30.03,North,0,0.0,0.0,75,0.00,,BKN100,0.28,VWS V14.01,2013-06-19 23:10:00,
2013-06-19 19:13:00,78.6,70.0,30.03,North,0,0.0,0.0,75,0.00,,BKN100,0.28,VWS V14.01,2013-06-19 23:13:00,
2013-06-19 19:14:00,78.6,70.0,30.03,North,0,0.0,0.0,75,0.00,,BKN100,0.28,VWS V14.01,2013-06-19 23:14:00,
2013-06-19 19:16:00,79.0,70.0,30.03,North,0,0.0,0.0,74,0.00,,BKN100,0.28,VWS V14.01,2013-06-19 23:16:00,
2013-06-19 19:20:00,79.2,69.8,30.03,North,0,0.0,0.0,73,0.00,,BKN100,0.28,VWS V14.01,2013-06-19 23:20:00,
2013-06-19 19:23:00,79.2,69.8,30.03,North,0,0.0,0.0,73,0.00,,BKN100,0.28,VWS V14.01,2013-06-19 23:23:00,
2013-06-19 19:26:00,79.9,69.6,30.03,North,0,0.0,0.0,71,0.00,,BKN100,0.28,VWS V14.01,2013-06-19 23:26:00,
2013-06-19 19:27:00,79.9,69.2,30.03,North,0,0.0,0.0,70,0.00,,BKN100,0.28,VWS V14.01,2013-06-19 23:27:00,
2013-06-19 19:28:00,80.1,69.4,30.06,North,0,0.0,0.0,70,0.00,,BKN100,0.28,VWS V14.01,2013-06-19 23:28:00,
2013-06-19 19:30:00,80.1,69.4,30.06,North,0,0.0,0.0,70,0.00,,BKN100,0.28,VWS V14.01,2013-06-19 23:30:00,
2013-06-19 19:32:00,80.2,69.2,30.06,North,0,0.0,0.0,69,0.00,,BKN100,0.28,VWS V14.01,2013-06-19 23:32:00,
2013-06-19 19:35:00,80.2,69.2,30.06,North,0,0.0,0.0,69,0.00,,BKN100,0.28,VWS V14.01,2013-06-19 23:35:00,
2013-06-19 19:37:00,80.4,69.3,30.06,North,0,0.0,0.0,69,0.00,,BKN100,0.28,VWS V14.01,2013-06-19 23:37:00,
2013-06-19 19:39:00,80.4,68.9,30.06,North,0,0.0,0.0,68,0.00,,BKN100,0.28,VWS V14.01,2013-06-19 23:39:00,
2013-06-19 19:40:00,80.4,68.9,30.06,North,0,0.0,0.0,68,0.00,,BKN100,0.28,VWS V14.01,2013-06-19 23:40:00,
2013-06-19 19:42:00,80.2,68.3,30.06,North,0,0.0,0.0,67,0.00,,BKN100,0.28,VWS V14.01,2013-06-19 23:42:00,
2013-06-19 19:44:00,80.1,68.1,30.06,North,0,0.0,0.0,67,0.00,,BKN100,0.28,VWS V14.01,2013-06-19 23:44:00,
2013-06-19 19:45:00,79.9,67.9,30.06,North,0,0.0,0.0,67,0.00,,BKN100,0.28,VWS V14.01,2013-06-19 23:45:00,
2013-06-19 19:48:00,79.9,67.9,30.06,North,0,0.0,0.0,67,0.00,,BKN100,0.28,VWS V14.01,2013-06-19 23:48:00,
2013-06-19 19:49:00,79.7,67.8,30.06,North,0,0.0,0.0,67,0.00,,BKN100,0.28,VWS V14.01,2013-06-19 23:49:00,
2013-06-19 19:53:00,79.3,67.4,30.06,North,0,0.0,0.0,67,0.00,,BKN100,0.28,VWS V14.01,2013-06-19 23:53:00,
2013-06-19 19:55:00,79.2,67.3,30.06,North,0,0.0,0.0,67,0.00,,BKN100,0.28,VWS V14.01,2013-06-19 23:55:00,
2013-06-19 19:59:00,78.8,66.9,30.06,North,0,0.0,0.0,67,0.00,,BKN100,0.28,VWS V14.01,2013-06-19 23:59:00,
2013-06-19 20:01:00,78.6,67.2,30.06,North,0,0.0,0.0,68,0.00,,BKN100,0.28,VWS V14.01,2013-06-20 00:01:00,
2013-06-19 20:03:00,78.4,67.0,30.06,North,0,0.0,0.0,68,0.00,,BKN100,0.28,VWS V14.01,2013-06-20 00:03:00,
2013-06-19 20:07:00,78.4,67.4,30.06,North,0,0.0,0.0,69,0.00,,FEW045,0.28,VWS V14.01,2013-06-20 00:07:00,
2013-06-19 20:08:00,78.3,67.3,30.06,North,0,0.0,0.0,69,0.00,,FEW045,0.28,VWS V14.01,2013-06-20 00:08:00,
2013-06-19 20:09:00,78.3,67.3,30.06,North,0,0.0,0.0,69,0.00,,FEW045,0.28,VWS V14.01,2013-06-20 00:09:00,
2013-06-19 20:14:00,78.1,67.1,30.03,North,0,0.0,0.0,69,0.00,,FEW045,0.28,VWS V14.01,2013-06-20 00:14:00,
2013-06-19 20:15:00,78.1,67.1,30.03,North,0,0.0,0.0,69,0.00,,FEW045,0.28,VWS V14.01,2013-06-20 00:15:00,
2013-06-19 20:17:00,77.9,66.5,30.03,North,0,0.0,0.0,68,0.00,,FEW045,0.28,VWS V14.01,2013-06-20 00:17:00,
2013-06-19 20:19:00,77.9,66.5,30.03,North,0,0.0,0.0,68,0.00,,FEW045,0.28,VWS V14.01,2013-06-20 00:19:00,
2013-06-19 20:20:00,77.9,66.5,30.03,North,0,0.0,0.0,68,0.00,,FEW045,0.28,VWS V14.01,2013-06-20 00:20:00,
2013-06-19 20:22:00,77.7,66.3,30.03,North,0,0.0,0.0,68,0.00,,FEW045,0.28,VWS V14.01,2013-06-20 00:22:00,
2013-06-19 20:24:00,77.5,66.6,30.03,North,0,0.0,0.0,69,0.00,,FEW045,0.28,VWS V14.01,2013-06-20 00:24:00,
2013-06-19 20:25:00,77.5,66.6,30.03,North,0,0.0,0.0,69,0.00,,FEW045,0.28,VWS V14.01,2013-06-20 00:25:00,
2013-06-19 20:26:00,77.5,66.6,30.03,North,0,0.0,0.0,69,0.00,,FEW045,0.28,VWS V14.01,2013-06-20 00:26:00,
2013-06-19 20:29:00,77.5,66.6,30.03,North,0,0.0,0.0,69,0.00,,FEW045,0.28,VWS V14.01,2013-06-20 00:29:00,
2013-06-19 20:31:00,77.5,66.6,30.03,North,0,0.0,0.0,69,0.00,,FEW045,0.28,VWS V14.01,2013-06-20 00:31:00,
2013-06-19 20:32:00,77.5,66.6,30.03,North,0,0.0,0.0,69,0.00,,FEW045,0.28,VWS V14.01,2013-06-20 00:32:00,
2013-06-19 20:33:00,77.5,66.6,30.03,North,0,0.0,0.0,69,0.00,,FEW045,0.28,VWS V14.01,2013-06-20 00:33:00,
2013-06-19 20:35:00,77.5,66.6,30.03,North,0,0.0,0.0,69,0.00,,FEW045,0.28,VWS V14.01,2013-06-20 00:35:00,
2013-06-19 20:37:00,77.5,66.6,30.03,North,0,0.0,0.0,69,0.00,,FEW045,0.28,VWS V14.01,2013-06-20 00:37:00,
2013-06-19 20:41:00,77.5,66.6,30.03,North,0,0.0,0.0,69,0.00,,FEW045,0.28,VWS V14.01,2013-06-20 00:41:00,
2013-06-19 20:42:00,77.5,66.6,30.03,North,0,0.0,0.0,69,0.00,,FEW045,0.28,VWS V14.01,2013-06-20 00:42:00,
2013-06-19 20:44:00,77.5,66.6,30.03,North,0,0.0,0.0,69,0.00,,FEW045,0.28,VWS V14.01,2013-06-20 00:44:00,
2013-06-19 20:46:00,77.5,66.6,30.03,North,0,0.0,0.0,69,0.00,,FEW045,0.28,VWS V14.01,2013-06-20 00:46:00,
2013-06-19 20:47:00,77.5,66.6,30.03,North,0,0.0,0.0,69,0.00,,FEW045,0.28,VWS V14.01,2013-06-20 00:47:00,
2013-06-19 20:51:00,77.5,66.6,30.03,North,0,0.0,0.0,69,0.00,,FEW045,0.28,VWS V14.01,2013-06-20 00:51:00,
2013-06-19 20:53:00,77.5,66.6,30.03,North,0,0.0,0.0,69,0.00,,FEW045,0.28,VWS V14.01,2013-06-20 00:53:00,
2013-06-19 20:55:00,77.5,66.6,30.03,North,0,0.0,0.0,69,0.00,,FEW045,0.28,VWS V14.01,2013-06-20 00:55:00,
2013-06-19 20:57:00,77.5,66.6,30.03,North,0,0.0,0.0,69,0.00,,FEW045,0.28,VWS V14.01,2013-06-20 00:57:00,
2013-06-19 21:00:00,75.9,66.2,30.03,North,0,0.0,0.0,72,0.00,,FEW045,0.28,VWS V14.01,2013-06-20 01:00:00,
2013-06-19 21:01:00,75.9,66.2,30.03,North,0,0.0,0.0,72,0.00,,FEW045,0.28,VWS V14.01,2013-06-20 01:01:00,
2013-06-19 21:03:00,75.9,66.2,30.03,North,0,0.0,0.0,72,0.00,,FEW045,0.28,VWS V14.01,2013-06-20 01:03:00,
2013-06-19 21:05:00,75.9,66.2,30.03,North,0,0.0,0.0,72,0.00,,FEW045,0.28,VWS V14.01,2013-06-20 01:05:00,
2013-06-19 21:06:00,75.9,66.2,30.03,North,0,0.0,0.0,72,0.00,,FEW045,0.28,VWS V14.01,2013-06-20 01:06:00,
2013-06-19 21:07:00,75.9,66.2,30.03,North,0,0.0,0.0,72,0.00,,FEW045,0.28,VWS V14.01,2013-06-20 01:07:00,
2013-06-19 21:08:00,75.9,66.2,30.03,North,0,0.0,0.0,72,0.00,,FEW045,0.28,VWS V14.01,2013-06-20 01:08:00,
2013-06-19 21:09:00,75.9,66.2,30.03,North,0,0.0,0.0,72,0.00,,FEW045,0.28,VWS V14.01,2013-06-20 01:09:00,
2013-06-19 21:13:00,75.7,67.3,30.03,North,0,0.0,0.0,75,0.00,,FEW045,0.28,VWS V14.01,2013-06-20 01:13:00,
2013-06-19 21:15:00,75.7,67.3,30.06,North,0,0.0,0.0,75,0.00,,FEW030,0.28,VWS V14.01,2013-06-20 01:15:00,
2013-06-19 21:18:00,75.7,67.3,30.06,North,0,0.0,0.0,75,0.00,,FEW030,0.28,VWS V14.01,2013-06-20 01:18:00,
2013-06-19 21:19:00,75.7,67.3,30.06,North,0,0.0,0.0,75,0.00,,FEW030,0.28,VWS V14.01,2013-06-20 01:19:00,
2013-06-19 21:20:00,75.7,67.3,30.06,North,0,0.0,0.0,75,0.00,,FEW030,0.28,VWS V14.01,2013-06-20 01:20:00,
2013-06-19 21:21:00,75.7,67.3,30.06,North,0,0.0,0.0,75,0.00,,FEW030,0.28,VWS V14.01,2013-06-20 01:21:00,
2013-06-19 21:23:00,76.1,68.0,30.06,North,0,0.0,0.0,76,0.00,,FEW030,0.28,VWS V14.01,2013-06-20 01:23:00,
2013-06-19 21:25:00,76.1,68.0,30.06,North,0,0.0,0.0,76,0.00,,FEW030,0.28,VWS V14.01,2013-06-20 01:25:00,
2013-06-19 21:26:00,76.1,68.0,30.06,North,0,0.0,0.0,76,0.00,,FEW030,0.28,VWS V14.01,2013-06-20 01:26:00,
2013-06-19 21:27:00,76.1,68.0,30.06,North,0,0.0,0.0,76,0.00,,FEW030,0.28,VWS V14.01,2013-06-20 01:27:00,
2013-06-19 21:28:00,76.1,68.0,30.06,North,0,0.0,0.0,76,0.00,,FEW030,0.28,VWS V14.01,2013-06-20 01:28:00,
2013-06-19 21:31:00,76.1,68.0,30.06,North,0,0.0,0.0,76,0.00,,FEW030,0.28,VWS V14.01,2013-06-20 01:31:00,
2013-06-19 21:34:00,76.1,68.0,30.06,North,0,0.0,0.0,76,0.00,,FEW030,0.28,VWS V14.01,2013-06-20 01:34:00,
2013-06-19 21:35:00,76.1,68.0,30.06,North,0,0.0,0.0,76,0.00,,FEW030,0.28,VWS V14.01,2013-06-20 01:35:00,
2013-06-19 21:36:00,76.1,68.0,30.06,North,0,0.0,0.0,76,0.00,,FEW030,0.28,VWS V14.01,2013-06-20 01:36:00,
2013-06-19 21:38:00,76.1,68.0,30.06,North,0,0.0,0.0,76,0.00,,FEW030,0.28,VWS V14.01,2013-06-20 01:38:00,
2013-06-19 21:40:00,76.1,68.0,30.06,North,0,0.0,0.0,76,0.00,,FEW030,0.28,VWS V14.01,2013-06-20 01:40:00,
2013-06-19 21:41:00,76.1,68.0,30.06,North,0,0.0,0.0,76,0.00,,FEW030,0.28,VWS V14.01,2013-06-20 01:41:00,
2013-06-19 21:42:00,76.1,68.0,30.06,North,0,0.0,0.0,76,0.00,,FEW030,0.28,VWS V14.01,2013-06-20 01:42:00,
2013-06-19 21:45:00,76.1,68.0,30.06,North,0,0.0,0.0,76,0.00,,FEW030,0.28,VWS V14.01,2013-06-20 01:45:00,
2013-06-19 21:46:00,76.1,68.0,30.06,North,0,0.0,0.0,76,0.00,,FEW030,0.28,VWS V14.01,2013-06-20 01:46:00,
2013-06-19 21:48:00,76.1,68.0,30.06,North,0,0.0,0.0,76,0.00,,FEW030,0.28,VWS V14.01,2013-06-20 01:48:00,
2013-06-19 21:49:00,76.1,68.0,30.06,North,0,0.0,0.0,76,0.00,,FEW030,0.28,VWS V14.01,2013-06-20 01:49:00,
2013-06-19 21:50:00,76.1,68.0,30.06,North,0,0.0,0.0,76,0.00,,FEW030,0.28,VWS V14.01,2013-06-20 01:50:00,
2013-06-19 21:51:00,76.1,68.0,30.06,North,0,0.0,0.0,76,0.00,,FEW030,0.28,VWS V14.01,2013-06-20 01:51:00,
2013-06-19 21:53:00,76.1,68.0,30.06,North,0,0.0,0.0,76,0.00,,FEW030,0.28,VWS V14.01,2013-06-20 01:53:00,
2013-06-19 21:56:00,76.1,68.0,30.06,North,0,0.0,0.0,76,0.00,,FEW030,0.28,VWS V14.01,2013-06-20 01:56:00,
2013-06-19 21:57:00,75.9,67.8,30.06,North,0,0.0,0.0,76,0.00,,FEW030,0.28,VWS V14.01,2013-06-20 01:57:00,
2013-06-19 22:00:00,75.9,67.8,30.06,North,0,0.0,0.0,76,0.00,,FEW030,0.28,VWS V14.01,2013-06-20 02:00:00,
2013-06-19 22:02:00,75.9,68.2,30.06,North,0,0.0,0.0,77,0.00,,FEW030,0.28,VWS V14.01,2013-06-20 02:02:00,
2013-06-19 22:03:00,75.9,68.2,30.06,North,0,0.0,0.0,77,0.00,,FEW030,0.28,VWS V14.01,2013-06-20 02:03:00,
2013-06-19 22:05:00,75.9,68.2,30.06,North,0,0.0,0.0,77,0.00,,CLR,0.28,VWS V14.01,2013-06-20 02:05:00,
2013-06-19 22:10:00,75.9,68.2,30.06,North,0,0.0,0.0,77,0.00,,CLR,0.28,VWS V14.01,2013-06-20 02:10:00,
2013-06-19 22:11:00,75.9,68.2,30.06,North,0,0.0,0.0,77,0.00,,CLR,0.28,VWS V14.01,2013-06-20 02:11:00,
2013-06-19 22:12:00,75.9,68.2,30.06,North,0,0.0,0.0,77,0.00,,CLR,0.28,VWS V14.01,2013-06-20 02:12:00,
2013-06-19 22:15:00,75.9,68.2,30.06,North,0,0.0,0.0,77,0.00,,CLR,0.28,VWS V14.01,2013-06-20 02:15:00,
2013-06-19 22:16:00,75.9,68.2,30.06,North,0,0.0,0.0,77,0.00,,CLR,0.28,VWS V14.01,2013-06-20 02:16:00,
2013-06-19 22:17:00,76.1,68.8,30.06,North,0,0.0,0.0,78,0.00,,CLR,0.28,VWS V14.01,2013-06-20 02:17:00,
2013-06-19 22:18:00,76.1,68.8,30.06,North,0,0.0,0.0,78,0.00,,CLR,0.28,VWS V14.01,2013-06-20 02:18:00,
2013-06-19 22:19:00,76.1,68.8,30.06,North,0,0.0,0.0,78,0.00,,CLR,0.28,VWS V14.01,2013-06-20 02:19:00,
2013-06-19 22:22:00,76.1,68.8,30.06,North,0,0.0,0.0,78,0.00,,CLR,0.28,VWS V14.01,2013-06-20 02:22:00,
2013-06-19 22:24:00,76.1,68.8,30.06,North,0,0.0,0.0,78,0.00,,CLR,0.28,VWS V14.01,2013-06-20 02:24:00,
2013-06-19 22:25:00,76.1,68.8,30.06,North,0,0.0,0.0,78,0.00,,CLR,0.28,VWS V14.01,2013-06-20 02:25:00,
2013-06-19 22:28:00,76.1,68.8,30.06,North,0,0.0,0.0,78,0.00,,CLR,0.28,VWS V14.01,2013-06-20 02:28:00,
2013-06-19 22:32:00,76.1,68.8,30.06,North,0,0.0,0.0,78,0.00,,CLR,0.28,VWS V14.01,2013-06-20 02:32:00,
2013-06-19 22:33:00,76.1,68.8,30.06,North,0,0.0,0.0,78,0.00,,CLR,0.28,VWS V14.01,2013-06-20 02:33:00,
2013-06-19 22:34:00,76.1,68.8,30.06,North,0,0.0,0.0,78,0.00,,CLR,0.28,VWS V14.01,2013-06-20 02:34:00,
2013-06-19 22:35:00,76.1,68.8,30.06,North,0,0.0,0.0,78,0.00,,CLR,0.28,VWS V14.01,2013-06-20 02:35:00,
2013-06-19 22:38:00,76.1,68.8,30.06,North,0,0.0,0.0,78,0.00,,CLR,0.28,VWS V14.01,2013-06-20 02:38:00,
2013-06-19 22:39:00,76.1,68.8,30.06,North,0,0.0,0.0,78,0.00,,CLR,0.28,VWS V14.01,2013-06-20 02:39:00,
2013-06-19 22:41:00,76.1,68.8,30.06,North,0,0.0,0.0,78,0.00,,CLR,0.28,VWS V14.01,2013-06-20 02:41:00,
2013-06-19 22:42:00,76.1,68.8,30.06,North,0,0.0,0.0,78,0.00,,CLR,0.28,VWS V14.01,2013-06-20 02:42:00,
2013-06-19 22:43:00,76.1,68.8,30.06,North,0,0.0,0.0,78,0.00,,CLR,0.28,VWS V14.01,2013-06-20 02:43:00,
2013-06-19 22:44:00,76.1,68.8,30.06,North,0,0.0,0.0,78,0.00,,CLR,0.28,VWS V14.01,2013-06-20 02:44:00,
2013-06-19 22:47:00,76.1,68.8,30.06,North,0,0.0,0.0,78,0.00,,CLR,0.28,VWS V14.01,2013-06-20 02:47:00,
2013-06-19 22:52:00,76.1,68.8,30.06,North,0,0.0,0.0,78,0.00,,CLR,0.28,VWS V14.01,2013-06-20 02:52:00,
2013-06-19 22:53:00,76.1,68.8,30.06,North,0,0.0,0.0,78,0.00,,CLR,0.28,VWS V14.01,2013-06-20 02:53:00,
2013-06-19 22:55:00,76.1,68.8,30.06,North,0,0.0,0.0,78,0.00,,CLR,0.28,VWS V14.01,2013-06-20 02:55:00,
2013-06-19 22:57:00,76.1,68.8,30.06,North,0,0.0,0.0,78,0.00,,CLR,0.28,VWS V14.01,2013-06-20 02:57:00,
2013-06-19 23:00:00,76.1,68.8,30.09,North,0,0.0,0.0,78,0.00,,CLR,0.28,VWS V14.01,2013-06-20 03:00:00,
2013-06-19 23:01:00,76.1,68.8,30.09,North,0,0.0,0.0,78,0.00,,CLR,0.28,VWS V14.01,2013-06-20 03:01:00,
2013-06-19 23:02:00,76.1,68.8,30.09,North,0,0.0,0.0,78,0.00,,CLR,0.28,VWS V14.01,2013-06-20 03:02:00,
2013-06-19 23:05:00,76.1,68.8,30.09,North,0,0.0,0.0,78,0.00,,FEW060,0.28,VWS V14.01,2013-06-20 03:05:00,
2013-06-19 23:07:00,76.1,68.8,30.09,North,0,0.0,0.0,78,0.00,,FEW060,0.28,VWS V14.01,2013-06-20 03:07:00,
2013-06-19 23:09:00,76.1,68.8,30.09,North,0,0.0,0.0,78,0.00,,FEW060,0.28,VWS V14.01,2013-06-20 03:09:00,
2013-06-19 23:10:00,76.1,68.8,30.09,North,0,0.0,0.0,78,0.00,,FEW060,0.28,VWS V14.01,2013-06-20 03:10:00,
2013-06-19 23:11:00,76.1,68.8,30.09,North,0,0.0,0.0,78,0.00,,FEW060,0.28,VWS V14.01,2013-06-20 03:11:00,
2013-06-19 23:14:00,76.1,68.8,30.06,North,0,0.0,0.0,78,0.00,,FEW060,0.28,VWS V14.01,2013-06-20 03:14:00,
2013-06-19 23:16:00,76.1,68.8,30.06,North,0,0.0,0.0,78,0.00,,FEW060,0.28,VWS V14.01,2013-06-20 03:16:00,
2013-06-19 23:17:00,76.1,68.8,30.06,North,0,0.0,0.0,78,0.00,,FEW060,0.28,VWS V14.01,2013-06-20 03:17:00,
2013-06-19 23:18:00,76.1,68.8,30.06,North,0,0.0,0.0,78,0.00,,FEW060,0.28,VWS V14.01,2013-06-20 03:18:00,
2013-06-19 23:20:00,76.1,68.8,30.06,North,0,0.0,0.0,78,0.00,,FEW060,0.28,VWS V14.01,2013-06-20 03:20:00,
2013-06-19 23:22:00,76.1,68.8,30.06,North,0,0.0,0.0,78,0.00,,FEW060,0.28,VWS V14.01,2013-06-20 03:22:00,
2013-06-19 23:23:00,76.1,68.8,30.06,North,0,0.0,0.0,78,0.00,,FEW060,0.28,VWS V14.01,2013-06-20 03:23:00,
2013-06-19 23:25:00,76.1,68.8,30.06,North,0,0.0,0.0,78,0.00,,FEW060,0.28,VWS V14.01,2013-06-20 03:25:00,
2013-06-19 23:29:00,76.1,68.8,30.06,North,0,0.0,0.0,78,0.00,,FEW060,0.28,VWS V14.01,2013-06-20 03:29:00,
2013-06-19 23:30:00,76.1,68.8,30.06,North,0,0.0,0.0,78,0.00,,FEW060,0.28,VWS V14.01,2013-06-20 03:30:00,
2013-06-19 23:31:00,76.1,68.8,30.06,North,0,0.0,0.0,78,0.00,,FEW060,0.28,VWS V14.01,2013-06-20 03:31:00,
2013-06-19 23:34:00,76.1,68.8,30.06,North,0,0.0,0.0,78,0.00,,FEW060,0.28,VWS V14.01,2013-06-20 03:34:00,
2013-06-19 23:35:00,76.1,68.8,30.06,North,0,0.0,0.0,78,0.00,,FEW060,0.28,VWS V14.01,2013-06-20 03:35:00,
2013-06-19 23:36:00,76.1,68.8,30.06,North,0,0.0,0.0,78,0.00,,FEW060,0.28,VWS V14.01,2013-06-20 03:36:00,
2013-06-19 23:37:00,76.1,68.8,30.06,North,0,0.0,0.0,78,0.00,,FEW060,0.28,VWS V14.01,2013-06-20 03:37:00,
2013-06-19 23:39:00,76.1,68.8,30.06,North,0,0.0,0.0,78,0.00,,FEW060,0.28,VWS V14.01,2013-06-20 03:39:00,
2013-06-19 23:42:00,76.1,68.8,30.06,North,0,0.0,0.0,78,0.00,,FEW060,0.28,VWS V14.01,2013-06-20 03:42:00,
2013-06-19 23:43:00,76.1,68.8,30.06,North,0,0.0,0.0,78,0.00,,FEW060,0.28,VWS V14.01,2013-06-20 03:43:00,
2013-06-19 23:44:00,76.1,68.8,30.06,North,0,0.0,0.0,78,0.00,,FEW060,0.28,VWS V14.01,2013-06-20 03:44:00,
2013-06-19 23:48:00,76.1,68.8,30.06,North,0,0.0,0.0,78,0.00,,FEW060,0.28,VWS V14.01,2013-06-20 03:48:00,
2013-06-19 23:49:00,76.1,68.8,30.06,North,0,0.0,0.0,78,0.00,,FEW060,0.28,VWS V14.01,2013-06-20 03:49:00,
2013-06-19 23:50:00,76.1,68.8,30.06,North,0,0.0,0.0,78,0.00,,FEW060,0.28,VWS V14.01,2013-06-20 03:50:00,
2013-06-19 23:55:00,76.1,68.8,30.06,North,0,0.0,0.0,78,0.00,,FEW060,0.28,VWS V14.01,2013-06-20 03:55:00,
2013-06-19 23:56:00,76.1,68.8,30.06,North,0,0.0,0.0,78,0.00,,FEW060,0.28,VWS V14.01,2013-06-20 03:56:00,
2013-06-19 23:57:00,76.1,68.8,30.06,North,0,0.0,0.0,78,0.00,,FEW060,0.28,VWS V14.01,2013-06-20 03:57:00,